<?xml version="1.0" encoding="UTF-8" standalone="no" ?>
<gpx xmlns="http://www.topografix.com/GPX/1/1" xmlns:xsi="http://www.w3.org/2001/XMLSchema-instance" xsi:schemaLocation="http://www.topografix.com/GPX/1/1 http://www.topografix.com/GPX/1/1/gpx.xsd" version="1.1" creator="VisuGPX - https://www.visugpx.com">
  <metadata>
    <name>petit circuit dans le gapençais</name>
    <desc><![CDATA[Petit circuit dans la campagne Gapençaise avec  au menu :la montée à Rambaud et pour finir  la cote de la Rochette]]></desc>
  </metadata>
  <trk>
    <name><![CDATA[ACTIVE LOG 002]]></name>
    <trkseg>
      <trkpt lat="44.55876" lon="6.07488">
        <ele>708.148438</ele>
        <time>2011-03-01T10:12:53Z</time>
      </trkpt>
      <trkpt lat="44.55875" lon="6.07485">
        <ele>711.993652</ele>
        <time>2011-03-01T10:13:05Z</time>
      </trkpt>
      <trkpt lat="44.55875" lon="6.07483">
        <ele>716.31958</ele>
        <time>2011-03-01T10:13:10Z</time>
      </trkpt>
      <trkpt lat="44.55875" lon="6.07484">
        <ele>716.31958</ele>
        <time>2011-03-01T10:13:11Z</time>
      </trkpt>
      <trkpt lat="44.55876" lon="6.07484">
        <ele>720.164795</ele>
        <time>2011-03-01T10:13:25Z</time>
      </trkpt>
      <trkpt lat="44.55875" lon="6.07485">
        <ele>722.568115</ele>
        <time>2011-03-01T10:13:33Z</time>
      </trkpt>
      <trkpt lat="44.55874" lon="6.07489">
        <ele>724.971436</ele>
        <time>2011-03-01T10:13:38Z</time>
      </trkpt>
      <trkpt lat="44.55879" lon="6.07503">
        <ele>725.932617</ele>
        <time>2011-03-01T10:13:44Z</time>
      </trkpt>
      <trkpt lat="44.55885" lon="6.07509">
        <ele>725.932617</ele>
        <time>2011-03-01T10:13:47Z</time>
      </trkpt>
      <trkpt lat="44.55887" lon="6.07515">
        <ele>727.855225</ele>
        <time>2011-03-01T10:13:49Z</time>
      </trkpt>
      <trkpt lat="44.55883" lon="6.07528">
        <ele>728.335938</ele>
        <time>2011-03-01T10:13:52Z</time>
      </trkpt>
      <trkpt lat="44.55869" lon="6.0756">
        <ele>726.41333</ele>
        <time>2011-03-01T10:13:58Z</time>
      </trkpt>
      <trkpt lat="44.55851" lon="6.07602">
        <ele>727.374756</ele>
        <time>2011-03-01T10:14:10Z</time>
      </trkpt>
      <trkpt lat="44.55833" lon="6.07648">
        <ele>728.335938</ele>
        <time>2011-03-01T10:14:21Z</time>
      </trkpt>
      <trkpt lat="44.5581" lon="6.07717">
        <ele>730.739258</ele>
        <time>2011-03-01T10:14:35Z</time>
      </trkpt>
      <trkpt lat="44.55808" lon="6.07722">
        <ele>732.181396</ele>
        <time>2011-03-01T10:14:38Z</time>
      </trkpt>
      <trkpt lat="44.55808" lon="6.07722">
        <ele>732.181396</ele>
        <time>2011-03-01T10:14:39Z</time>
      </trkpt>
      <trkpt lat="44.55761" lon="6.07707">
        <ele>731.219971</ele>
        <time>2011-03-01T10:14:47Z</time>
      </trkpt>
      <trkpt lat="44.55732" lon="6.07719">
        <ele>729.297119</ele>
        <time>2011-03-01T10:14:57Z</time>
      </trkpt>
      <trkpt lat="44.55717" lon="6.07704">
        <ele>729.777832</ele>
        <time>2011-03-01T10:15:02Z</time>
      </trkpt>
      <trkpt lat="44.55688" lon="6.07691">
        <ele>726.41333</ele>
        <time>2011-03-01T10:15:13Z</time>
      </trkpt>
      <trkpt lat="44.55666" lon="6.07676">
        <ele>729.777832</ele>
        <time>2011-03-01T10:15:20Z</time>
      </trkpt>
      <trkpt lat="44.55665" lon="6.07674">
        <ele>729.297119</ele>
        <time>2011-03-01T10:15:21Z</time>
      </trkpt>
      <trkpt lat="44.5566" lon="6.07663">
        <ele>727.855225</ele>
        <time>2011-03-01T10:15:24Z</time>
      </trkpt>
      <trkpt lat="44.55638" lon="6.07649">
        <ele>727.855225</ele>
        <time>2011-03-01T10:15:34Z</time>
      </trkpt>
      <trkpt lat="44.55549" lon="6.0754">
        <ele>726.41333</ele>
        <time>2011-03-01T10:15:57Z</time>
      </trkpt>
      <trkpt lat="44.55535" lon="6.07525">
        <ele>726.41333</ele>
        <time>2011-03-01T10:16:00Z</time>
      </trkpt>
      <trkpt lat="44.55535" lon="6.07525">
        <ele>727.855225</ele>
        <time>2011-03-01T10:16:05Z</time>
      </trkpt>
      <trkpt lat="44.55535" lon="6.07525">
        <ele>728.335938</ele>
        <time>2011-03-01T10:16:16Z</time>
      </trkpt>
      <trkpt lat="44.55495" lon="6.07486">
        <ele>728.335938</ele>
        <time>2011-03-01T10:16:25Z</time>
      </trkpt>
      <trkpt lat="44.55483" lon="6.07516">
        <ele>726.894043</ele>
        <time>2011-03-01T10:16:32Z</time>
      </trkpt>
      <trkpt lat="44.55485" lon="6.07523">
        <ele>726.41333</ele>
        <time>2011-03-01T10:16:33Z</time>
      </trkpt>
      <trkpt lat="44.55497" lon="6.07556">
        <ele>725.932617</ele>
        <time>2011-03-01T10:16:38Z</time>
      </trkpt>
      <trkpt lat="44.5551" lon="6.07619">
        <ele>723.048828</ele>
        <time>2011-03-01T10:16:46Z</time>
      </trkpt>
      <trkpt lat="44.55541" lon="6.07746">
        <ele>720.645508</ele>
        <time>2011-03-01T10:17:02Z</time>
      </trkpt>
      <trkpt lat="44.55544" lon="6.07758">
        <ele>722.568115</ele>
        <time>2011-03-01T10:17:04Z</time>
      </trkpt>
      <trkpt lat="44.55561" lon="6.07804">
        <ele>724.971436</ele>
        <time>2011-03-01T10:17:18Z</time>
      </trkpt>
      <trkpt lat="44.55561" lon="6.07804">
        <ele>724.01001</ele>
        <time>2011-03-01T10:17:20Z</time>
      </trkpt>
      <trkpt lat="44.5558" lon="6.07838">
        <ele>723.529541</ele>
        <time>2011-03-01T10:17:34Z</time>
      </trkpt>
      <trkpt lat="44.55576" lon="6.07851">
        <ele>723.529541</ele>
        <time>2011-03-01T10:17:37Z</time>
      </trkpt>
      <trkpt lat="44.55584" lon="6.07872">
        <ele>723.048828</ele>
        <time>2011-03-01T10:17:41Z</time>
      </trkpt>
      <trkpt lat="44.55623" lon="6.07903">
        <ele>724.490723</ele>
        <time>2011-03-01T10:17:57Z</time>
      </trkpt>
      <trkpt lat="44.55642" lon="6.07936">
        <ele>723.529541</ele>
        <time>2011-03-01T10:18:12Z</time>
      </trkpt>
      <trkpt lat="44.55656" lon="6.07962">
        <ele>724.971436</ele>
        <time>2011-03-01T10:18:18Z</time>
      </trkpt>
      <trkpt lat="44.55702" lon="6.08049">
        <ele>726.41333</ele>
        <time>2011-03-01T10:18:37Z</time>
      </trkpt>
      <trkpt lat="44.55707" lon="6.08058">
        <ele>724.490723</ele>
        <time>2011-03-01T10:18:39Z</time>
      </trkpt>
      <trkpt lat="44.55712" lon="6.08067">
        <ele>726.894043</ele>
        <time>2011-03-01T10:18:41Z</time>
      </trkpt>
      <trkpt lat="44.5573" lon="6.081">
        <ele>725.451904</ele>
        <time>2011-03-01T10:18:48Z</time>
      </trkpt>
      <trkpt lat="44.55783" lon="6.08204">
        <ele>728.335938</ele>
        <time>2011-03-01T10:19:11Z</time>
      </trkpt>
      <trkpt lat="44.55785" lon="6.08209">
        <ele>728.335938</ele>
        <time>2011-03-01T10:19:12Z</time>
      </trkpt>
      <trkpt lat="44.55844" lon="6.08303">
        <ele>729.297119</ele>
        <time>2011-03-01T10:19:33Z</time>
      </trkpt>
      <trkpt lat="44.5591" lon="6.08375">
        <ele>729.777832</ele>
        <time>2011-03-01T10:19:54Z</time>
      </trkpt>
      <trkpt lat="44.55949" lon="6.08413">
        <ele>731.700439</ele>
        <time>2011-03-01T10:20:09Z</time>
      </trkpt>
      <trkpt lat="44.55958" lon="6.08421">
        <ele>732.181396</ele>
        <time>2011-03-01T10:20:13Z</time>
      </trkpt>
      <trkpt lat="44.55977" lon="6.08432">
        <ele>732.662109</ele>
        <time>2011-03-01T10:20:21Z</time>
      </trkpt>
      <trkpt lat="44.55964" lon="6.08492">
        <ele>734.584717</ele>
        <time>2011-03-01T10:20:34Z</time>
      </trkpt>
      <trkpt lat="44.55946" lon="6.08552">
        <ele>737.949219</ele>
        <time>2011-03-01T10:20:52Z</time>
      </trkpt>
      <trkpt lat="44.55943" lon="6.08578">
        <ele>739.871826</ele>
        <time>2011-03-01T10:21:00Z</time>
      </trkpt>
      <trkpt lat="44.55962" lon="6.08632">
        <ele>741.794434</ele>
        <time>2011-03-01T10:21:17Z</time>
      </trkpt>
      <trkpt lat="44.55987" lon="6.08655">
        <ele>745.158936</ele>
        <time>2011-03-01T10:21:35Z</time>
      </trkpt>
      <trkpt lat="44.56001" lon="6.08736">
        <ele>748.523682</ele>
        <time>2011-03-01T10:21:55Z</time>
      </trkpt>
      <trkpt lat="44.56007" lon="6.08752">
        <ele>749.004395</ele>
        <time>2011-03-01T10:22:01Z</time>
      </trkpt>
      <trkpt lat="44.56027" lon="6.08806">
        <ele>751.888428</ele>
        <time>2011-03-01T10:22:19Z</time>
      </trkpt>
      <trkpt lat="44.56036" lon="6.08832">
        <ele>751.888428</ele>
        <time>2011-03-01T10:22:27Z</time>
      </trkpt>
      <trkpt lat="44.56039" lon="6.0884">
        <ele>752.368896</ele>
        <time>2011-03-01T10:22:30Z</time>
      </trkpt>
      <trkpt lat="44.56041" lon="6.08845">
        <ele>752.849609</ele>
        <time>2011-03-01T10:22:39Z</time>
      </trkpt>
      <trkpt lat="44.56041" lon="6.08845">
        <ele>752.849609</ele>
        <time>2011-03-01T10:22:58Z</time>
      </trkpt>
      <trkpt lat="44.56041" lon="6.08845">
        <ele>753.330322</ele>
        <time>2011-03-01T10:23:50Z</time>
      </trkpt>
      <trkpt lat="44.56041" lon="6.08845">
        <ele>751.888428</ele>
        <time>2011-03-01T10:23:53Z</time>
      </trkpt>
      <trkpt lat="44.56041" lon="6.08845">
        <ele>754.291748</ele>
        <time>2011-03-01T10:23:56Z</time>
      </trkpt>
      <trkpt lat="44.56041" lon="6.08845">
        <ele>752.368896</ele>
        <time>2011-03-01T10:23:58Z</time>
      </trkpt>
      <trkpt lat="44.56047" lon="6.08862">
        <ele>751.888428</ele>
        <time>2011-03-01T10:24:15Z</time>
      </trkpt>
      <trkpt lat="44.56063" lon="6.08904">
        <ele>749.96582</ele>
        <time>2011-03-01T10:24:26Z</time>
      </trkpt>
      <trkpt lat="44.5608" lon="6.08946">
        <ele>753.330322</ele>
        <time>2011-03-01T10:24:37Z</time>
      </trkpt>
      <trkpt lat="44.56123" lon="6.0903">
        <ele>752.368896</ele>
        <time>2011-03-01T10:24:58Z</time>
      </trkpt>
      <trkpt lat="44.56143" lon="6.0915">
        <ele>752.368896</ele>
        <time>2011-03-01T10:25:19Z</time>
      </trkpt>
      <trkpt lat="44.56145" lon="6.09161">
        <ele>754.772217</ele>
        <time>2011-03-01T10:25:21Z</time>
      </trkpt>
      <trkpt lat="44.5616" lon="6.09223">
        <ele>755.25293</ele>
        <time>2011-03-01T10:25:33Z</time>
      </trkpt>
      <trkpt lat="44.56173" lon="6.09288">
        <ele>751.888428</ele>
        <time>2011-03-01T10:25:43Z</time>
      </trkpt>
      <trkpt lat="44.56174" lon="6.09294">
        <ele>751.888428</ele>
        <time>2011-03-01T10:25:44Z</time>
      </trkpt>
      <trkpt lat="44.5618" lon="6.09333">
        <ele>752.849609</ele>
        <time>2011-03-01T10:25:50Z</time>
      </trkpt>
      <trkpt lat="44.56179" lon="6.09416">
        <ele>752.368896</ele>
        <time>2011-03-01T10:26:03Z</time>
      </trkpt>
      <trkpt lat="44.56142" lon="6.09532">
        <ele>753.811035</ele>
        <time>2011-03-01T10:26:23Z</time>
      </trkpt>
      <trkpt lat="44.56131" lon="6.09593">
        <ele>755.733643</ele>
        <time>2011-03-01T10:26:37Z</time>
      </trkpt>
      <trkpt lat="44.5615" lon="6.09698">
        <ele>757.175537</ele>
        <time>2011-03-01T10:27:02Z</time>
      </trkpt>
      <trkpt lat="44.56155" lon="6.0977">
        <ele>760.540039</ele>
        <time>2011-03-01T10:27:18Z</time>
      </trkpt>
      <trkpt lat="44.56153" lon="6.09858">
        <ele>763.424072</ele>
        <time>2011-03-01T10:27:39Z</time>
      </trkpt>
      <trkpt lat="44.56149" lon="6.0997">
        <ele>765.827637</ele>
        <time>2011-03-01T10:28:06Z</time>
      </trkpt>
      <trkpt lat="44.5614" lon="6.10035">
        <ele>769.192139</ele>
        <time>2011-03-01T10:28:23Z</time>
      </trkpt>
      <trkpt lat="44.56131" lon="6.10096">
        <ele>772.556641</ele>
        <time>2011-03-01T10:28:40Z</time>
      </trkpt>
      <trkpt lat="44.56124" lon="6.10151">
        <ele>775.921143</ele>
        <time>2011-03-01T10:28:55Z</time>
      </trkpt>
      <trkpt lat="44.56118" lon="6.10213">
        <ele>778.805176</ele>
        <time>2011-03-01T10:29:14Z</time>
      </trkpt>
      <trkpt lat="44.56111" lon="6.1027">
        <ele>782.169922</ele>
        <time>2011-03-01T10:29:31Z</time>
      </trkpt>
      <trkpt lat="44.56106" lon="6.10323">
        <ele>785.534424</ele>
        <time>2011-03-01T10:29:48Z</time>
      </trkpt>
      <trkpt lat="44.561" lon="6.1038">
        <ele>788.418457</ele>
        <time>2011-03-01T10:30:05Z</time>
      </trkpt>
      <trkpt lat="44.56091" lon="6.10436">
        <ele>791.782959</ele>
        <time>2011-03-01T10:30:23Z</time>
      </trkpt>
      <trkpt lat="44.56081" lon="6.10485">
        <ele>794.186279</ele>
        <time>2011-03-01T10:30:38Z</time>
      </trkpt>
      <trkpt lat="44.56065" lon="6.10543">
        <ele>797.070313</ele>
        <time>2011-03-01T10:30:57Z</time>
      </trkpt>
      <trkpt lat="44.56058" lon="6.10574">
        <ele>798.99292</ele>
        <time>2011-03-01T10:31:07Z</time>
      </trkpt>
      <trkpt lat="44.56037" lon="6.10641">
        <ele>801.39624</ele>
        <time>2011-03-01T10:31:30Z</time>
      </trkpt>
      <trkpt lat="44.56028" lon="6.10695">
        <ele>803.799561</ele>
        <time>2011-03-01T10:31:47Z</time>
      </trkpt>
      <trkpt lat="44.56021" lon="6.10769">
        <ele>807.164063</ele>
        <time>2011-03-01T10:32:09Z</time>
      </trkpt>
      <trkpt lat="44.56004" lon="6.10851">
        <ele>810.047852</ele>
        <time>2011-03-01T10:32:32Z</time>
      </trkpt>
      <trkpt lat="44.55983" lon="6.1092">
        <ele>812.932129</ele>
        <time>2011-03-01T10:32:54Z</time>
      </trkpt>
      <trkpt lat="44.5597" lon="6.11001">
        <ele>815.816162</ele>
        <time>2011-03-01T10:33:17Z</time>
      </trkpt>
      <trkpt lat="44.5596" lon="6.11087">
        <ele>817.738525</ele>
        <time>2011-03-01T10:33:41Z</time>
      </trkpt>
      <trkpt lat="44.55953" lon="6.11141">
        <ele>820.622559</ele>
        <time>2011-03-01T10:33:56Z</time>
      </trkpt>
      <trkpt lat="44.55944" lon="6.11204">
        <ele>822.545166</ele>
        <time>2011-03-01T10:34:13Z</time>
      </trkpt>
      <trkpt lat="44.55931" lon="6.11278">
        <ele>824.467773</ele>
        <time>2011-03-01T10:34:32Z</time>
      </trkpt>
      <trkpt lat="44.55924" lon="6.11358">
        <ele>825.428955</ele>
        <time>2011-03-01T10:34:55Z</time>
      </trkpt>
      <trkpt lat="44.55926" lon="6.11418">
        <ele>828.793945</ele>
        <time>2011-03-01T10:35:12Z</time>
      </trkpt>
      <trkpt lat="44.55928" lon="6.11474">
        <ele>829.755127</ele>
        <time>2011-03-01T10:35:26Z</time>
      </trkpt>
      <trkpt lat="44.55913" lon="6.11565">
        <ele>828.793945</ele>
        <time>2011-03-01T10:35:46Z</time>
      </trkpt>
      <trkpt lat="44.55871" lon="6.11664">
        <ele>830.716553</ele>
        <time>2011-03-01T10:36:09Z</time>
      </trkpt>
      <trkpt lat="44.55809" lon="6.1174">
        <ele>830.23584</ele>
        <time>2011-03-01T10:36:29Z</time>
      </trkpt>
      <trkpt lat="44.55756" lon="6.11805">
        <ele>829.274414</ele>
        <time>2011-03-01T10:36:45Z</time>
      </trkpt>
      <trkpt lat="44.55743" lon="6.11879">
        <ele>829.755127</ele>
        <time>2011-03-01T10:37:01Z</time>
      </trkpt>
      <trkpt lat="44.55735" lon="6.11955">
        <ele>832.63916</ele>
        <time>2011-03-01T10:37:21Z</time>
      </trkpt>
      <trkpt lat="44.55725" lon="6.12017">
        <ele>836.484375</ele>
        <time>2011-03-01T10:37:38Z</time>
      </trkpt>
      <trkpt lat="44.55703" lon="6.12105">
        <ele>837.445557</ele>
        <time>2011-03-01T10:38:00Z</time>
      </trkpt>
      <trkpt lat="44.55655" lon="6.12177">
        <ele>836.964844</ele>
        <time>2011-03-01T10:38:19Z</time>
      </trkpt>
      <trkpt lat="44.55601" lon="6.12241">
        <ele>838.406982</ele>
        <time>2011-03-01T10:38:39Z</time>
      </trkpt>
      <trkpt lat="44.55591" lon="6.12305">
        <ele>838.887695</ele>
        <time>2011-03-01T10:38:54Z</time>
      </trkpt>
      <trkpt lat="44.55565" lon="6.12364">
        <ele>840.810059</ele>
        <time>2011-03-01T10:39:09Z</time>
      </trkpt>
      <trkpt lat="44.55521" lon="6.124">
        <ele>841.771484</ele>
        <time>2011-03-01T10:39:24Z</time>
      </trkpt>
      <trkpt lat="44.55487" lon="6.1246">
        <ele>841.771484</ele>
        <time>2011-03-01T10:39:39Z</time>
      </trkpt>
      <trkpt lat="44.55452" lon="6.12529">
        <ele>842.73291</ele>
        <time>2011-03-01T10:39:56Z</time>
      </trkpt>
      <trkpt lat="44.55408" lon="6.12582">
        <ele>843.694092</ele>
        <time>2011-03-01T10:40:14Z</time>
      </trkpt>
      <trkpt lat="44.55363" lon="6.12596">
        <ele>844.175049</ele>
        <time>2011-03-01T10:40:29Z</time>
      </trkpt>
      <trkpt lat="44.55357" lon="6.12591">
        <ele>845.616943</ele>
        <time>2011-03-01T10:40:31Z</time>
      </trkpt>
      <trkpt lat="44.55312" lon="6.1255">
        <ele>846.097656</ele>
        <time>2011-03-01T10:40:48Z</time>
      </trkpt>
      <trkpt lat="44.55265" lon="6.12554">
        <ele>847.539551</ele>
        <time>2011-03-01T10:41:04Z</time>
      </trkpt>
      <trkpt lat="44.55249" lon="6.12562">
        <ele>848.500732</ele>
        <time>2011-03-01T10:41:09Z</time>
      </trkpt>
      <trkpt lat="44.55224" lon="6.12574">
        <ele>847.539551</ele>
        <time>2011-03-01T10:41:17Z</time>
      </trkpt>
      <trkpt lat="44.55158" lon="6.12601">
        <ele>849.942871</ele>
        <time>2011-03-01T10:41:39Z</time>
      </trkpt>
      <trkpt lat="44.55104" lon="6.12627">
        <ele>850.904053</ele>
        <time>2011-03-01T10:41:57Z</time>
      </trkpt>
      <trkpt lat="44.55027" lon="6.12667">
        <ele>851.384766</ele>
        <time>2011-03-01T10:42:23Z</time>
      </trkpt>
      <trkpt lat="44.54982" lon="6.12724">
        <ele>851.865479</ele>
        <time>2011-03-01T10:42:45Z</time>
      </trkpt>
      <trkpt lat="44.54928" lon="6.12797">
        <ele>854.749268</ele>
        <time>2011-03-01T10:43:12Z</time>
      </trkpt>
      <trkpt lat="44.54876" lon="6.12826">
        <ele>856.191162</ele>
        <time>2011-03-01T10:43:32Z</time>
      </trkpt>
      <trkpt lat="44.5484" lon="6.12849">
        <ele>859.555908</ele>
        <time>2011-03-01T10:43:50Z</time>
      </trkpt>
      <trkpt lat="44.54832" lon="6.12858">
        <ele>860.998047</ele>
        <time>2011-03-01T10:43:55Z</time>
      </trkpt>
      <trkpt lat="44.54829" lon="6.12862">
        <ele>859.075195</ele>
        <time>2011-03-01T10:43:57Z</time>
      </trkpt>
      <trkpt lat="44.54812" lon="6.12869">
        <ele>862.439941</ele>
        <time>2011-03-01T10:44:05Z</time>
      </trkpt>
      <trkpt lat="44.5481" lon="6.12868">
        <ele>862.439941</ele>
        <time>2011-03-01T10:44:06Z</time>
      </trkpt>
      <trkpt lat="44.5479" lon="6.12843">
        <ele>864.362549</ele>
        <time>2011-03-01T10:44:18Z</time>
      </trkpt>
      <trkpt lat="44.54788" lon="6.12838">
        <ele>863.401367</ele>
        <time>2011-03-01T10:44:20Z</time>
      </trkpt>
      <trkpt lat="44.54778" lon="6.12819">
        <ele>865.804688</ele>
        <time>2011-03-01T10:44:29Z</time>
      </trkpt>
      <trkpt lat="44.54763" lon="6.12827">
        <ele>867.246582</ele>
        <time>2011-03-01T10:44:40Z</time>
      </trkpt>
      <trkpt lat="44.54771" lon="6.12861">
        <ele>869.169189</ele>
        <time>2011-03-01T10:44:52Z</time>
      </trkpt>
      <trkpt lat="44.54781" lon="6.12916">
        <ele>872.052979</ele>
        <time>2011-03-01T10:45:13Z</time>
      </trkpt>
      <trkpt lat="44.54784" lon="6.12957">
        <ele>875.898193</ele>
        <time>2011-03-01T10:45:29Z</time>
      </trkpt>
      <trkpt lat="44.54784" lon="6.12976">
        <ele>876.37915</ele>
        <time>2011-03-01T10:45:36Z</time>
      </trkpt>
      <trkpt lat="44.54776" lon="6.1302">
        <ele>879.743652</ele>
        <time>2011-03-01T10:45:52Z</time>
      </trkpt>
      <trkpt lat="44.54752" lon="6.13063">
        <ele>882.627686</ele>
        <time>2011-03-01T10:46:11Z</time>
      </trkpt>
      <trkpt lat="44.54728" lon="6.13107">
        <ele>885.992188</ele>
        <time>2011-03-01T10:46:32Z</time>
      </trkpt>
      <trkpt lat="44.54719" lon="6.13155">
        <ele>888.876221</ele>
        <time>2011-03-01T10:46:51Z</time>
      </trkpt>
      <trkpt lat="44.54725" lon="6.13204">
        <ele>891.76001</ele>
        <time>2011-03-01T10:47:10Z</time>
      </trkpt>
      <trkpt lat="44.54727" lon="6.1321">
        <ele>891.76001</ele>
        <time>2011-03-01T10:47:13Z</time>
      </trkpt>
      <trkpt lat="44.54711" lon="6.13201">
        <ele>894.644043</ele>
        <time>2011-03-01T10:47:22Z</time>
      </trkpt>
      <trkpt lat="44.54703" lon="6.13162">
        <ele>896.566895</ele>
        <time>2011-03-01T10:47:37Z</time>
      </trkpt>
      <trkpt lat="44.5469" lon="6.13112">
        <ele>898.969971</ele>
        <time>2011-03-01T10:47:57Z</time>
      </trkpt>
      <trkpt lat="44.54696" lon="6.13068">
        <ele>902.334473</ele>
        <time>2011-03-01T10:48:14Z</time>
      </trkpt>
      <trkpt lat="44.54688" lon="6.13029">
        <ele>905.218506</ele>
        <time>2011-03-01T10:48:30Z</time>
      </trkpt>
      <trkpt lat="44.54671" lon="6.12981">
        <ele>909.063965</ele>
        <time>2011-03-01T10:48:51Z</time>
      </trkpt>
      <trkpt lat="44.54669" lon="6.12927">
        <ele>911.947998</ele>
        <time>2011-03-01T10:49:12Z</time>
      </trkpt>
      <trkpt lat="44.54652" lon="6.12928">
        <ele>913.870361</ele>
        <time>2011-03-01T10:49:23Z</time>
      </trkpt>
      <trkpt lat="44.54646" lon="6.12978">
        <ele>917.235107</ele>
        <time>2011-03-01T10:49:42Z</time>
      </trkpt>
      <trkpt lat="44.54652" lon="6.13025">
        <ele>920.118896</ele>
        <time>2011-03-01T10:50:00Z</time>
      </trkpt>
      <trkpt lat="44.54652" lon="6.13057">
        <ele>923.00293</ele>
        <time>2011-03-01T10:50:12Z</time>
      </trkpt>
      <trkpt lat="44.54651" lon="6.13059">
        <ele>923.00293</ele>
        <time>2011-03-01T10:50:13Z</time>
      </trkpt>
      <trkpt lat="44.54621" lon="6.13087">
        <ele>926.367676</ele>
        <time>2011-03-01T10:50:31Z</time>
      </trkpt>
      <trkpt lat="44.54595" lon="6.1312">
        <ele>929.251465</ele>
        <time>2011-03-01T10:50:50Z</time>
      </trkpt>
      <trkpt lat="44.54579" lon="6.1316">
        <ele>932.616211</ele>
        <time>2011-03-01T10:51:08Z</time>
      </trkpt>
      <trkpt lat="44.54563" lon="6.1319">
        <ele>935.5</ele>
        <time>2011-03-01T10:51:23Z</time>
      </trkpt>
      <trkpt lat="44.54536" lon="6.13215">
        <ele>938.864746</ele>
        <time>2011-03-01T10:51:42Z</time>
      </trkpt>
      <trkpt lat="44.54502" lon="6.13221">
        <ele>941.268066</ele>
        <time>2011-03-01T10:52:00Z</time>
      </trkpt>
      <trkpt lat="44.54492" lon="6.1323">
        <ele>940.306885</ele>
        <time>2011-03-01T10:52:04Z</time>
      </trkpt>
      <trkpt lat="44.54477" lon="6.13241">
        <ele>939.825928</ele>
        <time>2011-03-01T10:52:08Z</time>
      </trkpt>
      <trkpt lat="44.54464" lon="6.13243">
        <ele>938.864746</ele>
        <time>2011-03-01T10:52:11Z</time>
      </trkpt>
      <trkpt lat="44.54442" lon="6.13243">
        <ele>939.345215</ele>
        <time>2011-03-01T10:52:16Z</time>
      </trkpt>
      <trkpt lat="44.5443" lon="6.13242">
        <ele>939.345215</ele>
        <time>2011-03-01T10:52:19Z</time>
      </trkpt>
      <trkpt lat="44.54377" lon="6.13213">
        <ele>937.90332</ele>
        <time>2011-03-01T10:52:34Z</time>
      </trkpt>
      <trkpt lat="44.5433" lon="6.13218">
        <ele>940.306885</ele>
        <time>2011-03-01T10:52:49Z</time>
      </trkpt>
      <trkpt lat="44.54293" lon="6.13245">
        <ele>941.748779</ele>
        <time>2011-03-01T10:53:04Z</time>
      </trkpt>
      <trkpt lat="44.54254" lon="6.13305">
        <ele>941.748779</ele>
        <time>2011-03-01T10:53:24Z</time>
      </trkpt>
      <trkpt lat="44.54223" lon="6.13354">
        <ele>943.671387</ele>
        <time>2011-03-01T10:53:43Z</time>
      </trkpt>
      <trkpt lat="44.54209" lon="6.13402">
        <ele>945.113281</ele>
        <time>2011-03-01T10:53:57Z</time>
      </trkpt>
      <trkpt lat="44.542" lon="6.13469">
        <ele>945.113281</ele>
        <time>2011-03-01T10:54:14Z</time>
      </trkpt>
      <trkpt lat="44.54206" lon="6.13489">
        <ele>945.113281</ele>
        <time>2011-03-01T10:54:20Z</time>
      </trkpt>
      <trkpt lat="44.54205" lon="6.13541">
        <ele>945.593994</ele>
        <time>2011-03-01T10:54:33Z</time>
      </trkpt>
      <trkpt lat="44.54222" lon="6.13574">
        <ele>947.035889</ele>
        <time>2011-03-01T10:54:43Z</time>
      </trkpt>
      <trkpt lat="44.54267" lon="6.13591">
        <ele>947.997314</ele>
        <time>2011-03-01T10:55:01Z</time>
      </trkpt>
      <trkpt lat="44.54308" lon="6.13614">
        <ele>951.361816</ele>
        <time>2011-03-01T10:55:18Z</time>
      </trkpt>
      <trkpt lat="44.54311" lon="6.13615">
        <ele>951.361816</ele>
        <time>2011-03-01T10:55:19Z</time>
      </trkpt>
      <trkpt lat="44.54347" lon="6.13648">
        <ele>949.919922</ele>
        <time>2011-03-01T10:55:34Z</time>
      </trkpt>
      <trkpt lat="44.54384" lon="6.13676">
        <ele>949.439209</ele>
        <time>2011-03-01T10:55:47Z</time>
      </trkpt>
      <trkpt lat="44.54444" lon="6.13721">
        <ele>951.842529</ele>
        <time>2011-03-01T10:56:09Z</time>
      </trkpt>
      <trkpt lat="44.54467" lon="6.13787">
        <ele>953.284424</ele>
        <time>2011-03-01T10:56:26Z</time>
      </trkpt>
      <trkpt lat="44.54467" lon="6.13864">
        <ele>950.881104</ele>
        <time>2011-03-01T10:56:40Z</time>
      </trkpt>
      <trkpt lat="44.54465" lon="6.13909">
        <ele>950.881104</ele>
        <time>2011-03-01T10:56:47Z</time>
      </trkpt>
      <trkpt lat="44.54464" lon="6.13928">
        <ele>950.400635</ele>
        <time>2011-03-01T10:56:50Z</time>
      </trkpt>
      <trkpt lat="44.54458" lon="6.13953">
        <ele>949.919922</ele>
        <time>2011-03-01T10:56:54Z</time>
      </trkpt>
      <trkpt lat="44.54437" lon="6.14031">
        <ele>947.997314</ele>
        <time>2011-03-01T10:57:05Z</time>
      </trkpt>
      <trkpt lat="44.54436" lon="6.14106">
        <ele>947.516602</ele>
        <time>2011-03-01T10:57:15Z</time>
      </trkpt>
      <trkpt lat="44.54424" lon="6.1416">
        <ele>947.035889</ele>
        <time>2011-03-01T10:57:23Z</time>
      </trkpt>
      <trkpt lat="44.544" lon="6.14212">
        <ele>946.55542</ele>
        <time>2011-03-01T10:57:32Z</time>
      </trkpt>
      <trkpt lat="44.54394" lon="6.1423">
        <ele>947.035889</ele>
        <time>2011-03-01T10:57:35Z</time>
      </trkpt>
      <trkpt lat="44.54392" lon="6.14249">
        <ele>947.035889</ele>
        <time>2011-03-01T10:57:38Z</time>
      </trkpt>
      <trkpt lat="44.5441" lon="6.14324">
        <ele>948.477783</ele>
        <time>2011-03-01T10:57:53Z</time>
      </trkpt>
      <trkpt lat="44.54448" lon="6.14401">
        <ele>948.477783</ele>
        <time>2011-03-01T10:58:11Z</time>
      </trkpt>
      <trkpt lat="44.54464" lon="6.14451">
        <ele>948.477783</ele>
        <time>2011-03-01T10:58:22Z</time>
      </trkpt>
      <trkpt lat="44.54465" lon="6.14488">
        <ele>947.997314</ele>
        <time>2011-03-01T10:58:28Z</time>
      </trkpt>
      <trkpt lat="44.54469" lon="6.14517">
        <ele>948.477783</ele>
        <time>2011-03-01T10:58:33Z</time>
      </trkpt>
      <trkpt lat="44.54474" lon="6.14532">
        <ele>948.477783</ele>
        <time>2011-03-01T10:58:36Z</time>
      </trkpt>
      <trkpt lat="44.54499" lon="6.14599">
        <ele>949.439209</ele>
        <time>2011-03-01T10:58:50Z</time>
      </trkpt>
      <trkpt lat="44.54499" lon="6.14607">
        <ele>949.919922</ele>
        <time>2011-03-01T10:58:52Z</time>
      </trkpt>
      <trkpt lat="44.5451" lon="6.14664">
        <ele>952.803711</ele>
        <time>2011-03-01T10:59:09Z</time>
      </trkpt>
      <trkpt lat="44.54531" lon="6.14691">
        <ele>953.284424</ele>
        <time>2011-03-01T10:59:20Z</time>
      </trkpt>
      <trkpt lat="44.54549" lon="6.14732">
        <ele>955.207031</ele>
        <time>2011-03-01T10:59:34Z</time>
      </trkpt>
      <trkpt lat="44.54565" lon="6.14805">
        <ele>957.129883</ele>
        <time>2011-03-01T10:59:54Z</time>
      </trkpt>
      <trkpt lat="44.54563" lon="6.14858">
        <ele>959.05249</ele>
        <time>2011-03-01T11:00:08Z</time>
      </trkpt>
      <trkpt lat="44.5458" lon="6.14905">
        <ele>960.013672</ele>
        <time>2011-03-01T11:00:22Z</time>
      </trkpt>
      <trkpt lat="44.54606" lon="6.14929">
        <ele>962.416992</ele>
        <time>2011-03-01T11:00:33Z</time>
      </trkpt>
      <trkpt lat="44.54638" lon="6.1498">
        <ele>964.3396</ele>
        <time>2011-03-01T11:00:51Z</time>
      </trkpt>
      <trkpt lat="44.54645" lon="6.15049">
        <ele>966.262207</ele>
        <time>2011-03-01T11:01:08Z</time>
      </trkpt>
      <trkpt lat="44.54661" lon="6.15101">
        <ele>966.74292</ele>
        <time>2011-03-01T11:01:21Z</time>
      </trkpt>
      <trkpt lat="44.54682" lon="6.15094">
        <ele>968.665527</ele>
        <time>2011-03-01T11:01:29Z</time>
      </trkpt>
      <trkpt lat="44.54698" lon="6.15065">
        <ele>971.068848</ele>
        <time>2011-03-01T11:01:40Z</time>
      </trkpt>
      <trkpt lat="44.54712" lon="6.15073">
        <ele>971.549316</ele>
        <time>2011-03-01T11:01:46Z</time>
      </trkpt>
      <trkpt lat="44.5475" lon="6.15088">
        <ele>974.914307</ele>
        <time>2011-03-01T11:02:02Z</time>
      </trkpt>
      <trkpt lat="44.54785" lon="6.1513">
        <ele>975.394775</ele>
        <time>2011-03-01T11:02:19Z</time>
      </trkpt>
      <trkpt lat="44.54809" lon="6.15167">
        <ele>976.836914</ele>
        <time>2011-03-01T11:02:32Z</time>
      </trkpt>
      <trkpt lat="44.54835" lon="6.1522">
        <ele>978.759521</ele>
        <time>2011-03-01T11:02:50Z</time>
      </trkpt>
      <trkpt lat="44.54843" lon="6.15238">
        <ele>980.201416</ele>
        <time>2011-03-01T11:02:56Z</time>
      </trkpt>
      <trkpt lat="44.54872" lon="6.15309">
        <ele>981.643311</ele>
        <time>2011-03-01T11:03:18Z</time>
      </trkpt>
      <trkpt lat="44.54894" lon="6.15383">
        <ele>983.085205</ele>
        <time>2011-03-01T11:03:40Z</time>
      </trkpt>
      <trkpt lat="44.54915" lon="6.15414">
        <ele>986.449951</ele>
        <time>2011-03-01T11:03:51Z</time>
      </trkpt>
      <trkpt lat="44.54917" lon="6.15417">
        <ele>986.449951</ele>
        <time>2011-03-01T11:03:52Z</time>
      </trkpt>
      <trkpt lat="44.54965" lon="6.15443">
        <ele>987.891846</ele>
        <time>2011-03-01T11:04:11Z</time>
      </trkpt>
      <trkpt lat="44.55019" lon="6.15464">
        <ele>987.411133</ele>
        <time>2011-03-01T11:04:29Z</time>
      </trkpt>
      <trkpt lat="44.5507" lon="6.15445">
        <ele>986.93042</ele>
        <time>2011-03-01T11:04:47Z</time>
      </trkpt>
      <trkpt lat="44.55119" lon="6.15422">
        <ele>989.333984</ele>
        <time>2011-03-01T11:05:05Z</time>
      </trkpt>
      <trkpt lat="44.55177" lon="6.15436">
        <ele>989.814697</ele>
        <time>2011-03-01T11:05:25Z</time>
      </trkpt>
      <trkpt lat="44.55234" lon="6.1548">
        <ele>991.256592</ele>
        <time>2011-03-01T11:05:47Z</time>
      </trkpt>
      <trkpt lat="44.55287" lon="6.15533">
        <ele>993.659912</ele>
        <time>2011-03-01T11:06:09Z</time>
      </trkpt>
      <trkpt lat="44.55293" lon="6.15541">
        <ele>995.58252</ele>
        <time>2011-03-01T11:06:12Z</time>
      </trkpt>
      <trkpt lat="44.55297" lon="6.15547">
        <ele>993.659912</ele>
        <time>2011-03-01T11:06:14Z</time>
      </trkpt>
      <trkpt lat="44.55322" lon="6.15591">
        <ele>993.179199</ele>
        <time>2011-03-01T11:06:30Z</time>
      </trkpt>
      <trkpt lat="44.55327" lon="6.15599">
        <ele>995.101807</ele>
        <time>2011-03-01T11:06:33Z</time>
      </trkpt>
      <trkpt lat="44.55332" lon="6.15609">
        <ele>994.140625</ele>
        <time>2011-03-01T11:06:37Z</time>
      </trkpt>
      <trkpt lat="44.55338" lon="6.1562">
        <ele>996.543945</ele>
        <time>2011-03-01T11:06:41Z</time>
      </trkpt>
      <trkpt lat="44.55343" lon="6.15627">
        <ele>997.024414</ele>
        <time>2011-03-01T11:06:44Z</time>
      </trkpt>
      <trkpt lat="44.55371" lon="6.15651">
        <ele>997.98584</ele>
        <time>2011-03-01T11:06:58Z</time>
      </trkpt>
      <trkpt lat="44.55408" lon="6.15694">
        <ele>998.466309</ele>
        <time>2011-03-01T11:07:17Z</time>
      </trkpt>
      <trkpt lat="44.55426" lon="6.15723">
        <ele>999.908447</ele>
        <time>2011-03-01T11:07:29Z</time>
      </trkpt>
      <trkpt lat="44.5545" lon="6.15762">
        <ele>1001.831055</ele>
        <time>2011-03-01T11:07:44Z</time>
      </trkpt>
      <trkpt lat="44.55457" lon="6.15791">
        <ele>999.908447</ele>
        <time>2011-03-01T11:07:51Z</time>
      </trkpt>
      <trkpt lat="44.55488" lon="6.15843">
        <ele>1003.272949</ele>
        <time>2011-03-01T11:08:08Z</time>
      </trkpt>
      <trkpt lat="44.55495" lon="6.1585">
        <ele>1001.831055</ele>
        <time>2011-03-01T11:08:11Z</time>
      </trkpt>
      <trkpt lat="44.55535" lon="6.15897">
        <ele>998.947021</ele>
        <time>2011-03-01T11:08:25Z</time>
      </trkpt>
      <trkpt lat="44.55525" lon="6.1594">
        <ele>1001.831055</ele>
        <time>2011-03-01T11:08:37Z</time>
      </trkpt>
      <trkpt lat="44.5554" lon="6.15976">
        <ele>1002.792236</ele>
        <time>2011-03-01T11:08:50Z</time>
      </trkpt>
      <trkpt lat="44.55537" lon="6.15987">
        <ele>1005.195801</ele>
        <time>2011-03-01T11:08:58Z</time>
      </trkpt>
      <trkpt lat="44.55504" lon="6.15985">
        <ele>1009.521729</ele>
        <time>2011-03-01T11:09:12Z</time>
      </trkpt>
      <trkpt lat="44.55469" lon="6.16009">
        <ele>1012.88623</ele>
        <time>2011-03-01T11:09:30Z</time>
      </trkpt>
      <trkpt lat="44.55437" lon="6.16046">
        <ele>1014.328125</ele>
        <time>2011-03-01T11:09:46Z</time>
      </trkpt>
      <trkpt lat="44.55421" lon="6.16097">
        <ele>1014.808838</ele>
        <time>2011-03-01T11:10:01Z</time>
      </trkpt>
      <trkpt lat="44.55417" lon="6.1613">
        <ele>1012.405518</ele>
        <time>2011-03-01T11:10:06Z</time>
      </trkpt>
      <trkpt lat="44.55417" lon="6.16137">
        <ele>1011.444336</ele>
        <time>2011-03-01T11:10:07Z</time>
      </trkpt>
      <trkpt lat="44.55409" lon="6.16184">
        <ele>1012.88623</ele>
        <time>2011-03-01T11:10:15Z</time>
      </trkpt>
      <trkpt lat="44.55394" lon="6.16131">
        <ele>1008.560303</ele>
        <time>2011-03-01T11:10:21Z</time>
      </trkpt>
      <trkpt lat="44.55391" lon="6.16131">
        <ele>1008.560303</ele>
        <time>2011-03-01T11:10:22Z</time>
      </trkpt>
      <trkpt lat="44.55382" lon="6.16128">
        <ele>1006.637695</ele>
        <time>2011-03-01T11:10:24Z</time>
      </trkpt>
      <trkpt lat="44.55369" lon="6.16125">
        <ele>1005.195801</ele>
        <time>2011-03-01T11:10:26Z</time>
      </trkpt>
      <trkpt lat="44.55354" lon="6.16123">
        <ele>1004.715088</ele>
        <time>2011-03-01T11:10:29Z</time>
      </trkpt>
      <trkpt lat="44.55305" lon="6.16213">
        <ele>1003.753662</ele>
        <time>2011-03-01T11:10:38Z</time>
      </trkpt>
      <trkpt lat="44.55276" lon="6.16279">
        <ele>1003.753662</ele>
        <time>2011-03-01T11:10:45Z</time>
      </trkpt>
      <trkpt lat="44.55257" lon="6.16264">
        <ele>1004.715088</ele>
        <time>2011-03-01T11:10:50Z</time>
      </trkpt>
      <trkpt lat="44.55248" lon="6.16257">
        <ele>1005.676514</ele>
        <time>2011-03-01T11:10:54Z</time>
      </trkpt>
      <trkpt lat="44.55228" lon="6.16248">
        <ele>1007.599121</ele>
        <time>2011-03-01T11:11:03Z</time>
      </trkpt>
      <trkpt lat="44.55221" lon="6.16245">
        <ele>1009.521729</ele>
        <time>2011-03-01T11:11:06Z</time>
      </trkpt>
      <trkpt lat="44.55202" lon="6.16249">
        <ele>1008.560303</ele>
        <time>2011-03-01T11:11:14Z</time>
      </trkpt>
      <trkpt lat="44.55189" lon="6.1626">
        <ele>1010.002197</ele>
        <time>2011-03-01T11:11:20Z</time>
      </trkpt>
      <trkpt lat="44.55182" lon="6.1627">
        <ele>1011.444336</ele>
        <time>2011-03-01T11:11:24Z</time>
      </trkpt>
      <trkpt lat="44.55149" lon="6.16321">
        <ele>1014.328125</ele>
        <time>2011-03-01T11:11:44Z</time>
      </trkpt>
      <trkpt lat="44.55121" lon="6.1637">
        <ele>1017.692627</ele>
        <time>2011-03-01T11:12:03Z</time>
      </trkpt>
      <trkpt lat="44.55119" lon="6.16372">
        <ele>1017.692627</ele>
        <time>2011-03-01T11:12:04Z</time>
      </trkpt>
      <trkpt lat="44.55088" lon="6.16429">
        <ele>1019.615479</ele>
        <time>2011-03-01T11:12:25Z</time>
      </trkpt>
      <trkpt lat="44.55065" lon="6.16471">
        <ele>1022.499512</ele>
        <time>2011-03-01T11:12:41Z</time>
      </trkpt>
      <trkpt lat="44.55062" lon="6.16476">
        <ele>1023.460938</ele>
        <time>2011-03-01T11:12:43Z</time>
      </trkpt>
      <trkpt lat="44.55038" lon="6.16532">
        <ele>1026.344727</ele>
        <time>2011-03-01T11:13:02Z</time>
      </trkpt>
      <trkpt lat="44.55018" lon="6.16579">
        <ele>1029.709229</ele>
        <time>2011-03-01T11:13:19Z</time>
      </trkpt>
      <trkpt lat="44.54986" lon="6.1661">
        <ele>1032.593262</ele>
        <time>2011-03-01T11:13:36Z</time>
      </trkpt>
      <trkpt lat="44.54946" lon="6.16632">
        <ele>1035.957764</ele>
        <time>2011-03-01T11:13:53Z</time>
      </trkpt>
      <trkpt lat="44.54903" lon="6.16651">
        <ele>1038.842041</ele>
        <time>2011-03-01T11:14:12Z</time>
      </trkpt>
      <trkpt lat="44.54852" lon="6.16673">
        <ele>1041.72583</ele>
        <time>2011-03-01T11:14:33Z</time>
      </trkpt>
      <trkpt lat="44.54802" lon="6.16695">
        <ele>1042.687256</ele>
        <time>2011-03-01T11:14:51Z</time>
      </trkpt>
      <trkpt lat="44.54771" lon="6.16702">
        <ele>1040.283936</ele>
        <time>2011-03-01T11:14:57Z</time>
      </trkpt>
      <trkpt lat="44.5475" lon="6.16706">
        <ele>1037.880615</ele>
        <time>2011-03-01T11:15:00Z</time>
      </trkpt>
      <trkpt lat="44.54718" lon="6.16712">
        <ele>1035.477051</ele>
        <time>2011-03-01T11:15:04Z</time>
      </trkpt>
      <trkpt lat="44.54584" lon="6.16747">
        <ele>1033.07373</ele>
        <time>2011-03-01T11:15:21Z</time>
      </trkpt>
      <trkpt lat="44.54518" lon="6.1677">
        <ele>1036.438721</ele>
        <time>2011-03-01T11:15:34Z</time>
      </trkpt>
      <trkpt lat="44.54499" lon="6.16783">
        <ele>1036.919189</ele>
        <time>2011-03-01T11:15:39Z</time>
      </trkpt>
      <trkpt lat="44.54485" lon="6.16795">
        <ele>1037.399902</ele>
        <time>2011-03-01T11:15:43Z</time>
      </trkpt>
      <trkpt lat="44.54469" lon="6.16819">
        <ele>1036.919189</ele>
        <time>2011-03-01T11:15:48Z</time>
      </trkpt>
      <trkpt lat="44.54448" lon="6.16876">
        <ele>1034.515869</ele>
        <time>2011-03-01T11:15:56Z</time>
      </trkpt>
      <trkpt lat="44.54439" lon="6.16994">
        <ele>1031.151367</ele>
        <time>2011-03-01T11:16:10Z</time>
      </trkpt>
      <trkpt lat="44.54439" lon="6.17012">
        <ele>1030.670654</ele>
        <time>2011-03-01T11:16:12Z</time>
      </trkpt>
      <trkpt lat="44.54448" lon="6.17147">
        <ele>1030.670654</ele>
        <time>2011-03-01T11:16:26Z</time>
      </trkpt>
      <trkpt lat="44.54452" lon="6.17164">
        <ele>1031.631836</ele>
        <time>2011-03-01T11:16:28Z</time>
      </trkpt>
      <trkpt lat="44.54472" lon="6.17272">
        <ele>1029.709229</ele>
        <time>2011-03-01T11:16:41Z</time>
      </trkpt>
      <trkpt lat="44.54473" lon="6.17301">
        <ele>1027.786621</ele>
        <time>2011-03-01T11:16:44Z</time>
      </trkpt>
      <trkpt lat="44.54471" lon="6.17321">
        <ele>1027.306152</ele>
        <time>2011-03-01T11:16:46Z</time>
      </trkpt>
      <trkpt lat="44.5446" lon="6.17375">
        <ele>1023.941406</ele>
        <time>2011-03-01T11:16:51Z</time>
      </trkpt>
      <trkpt lat="44.54457" lon="6.17396">
        <ele>1022.499512</ele>
        <time>2011-03-01T11:16:53Z</time>
      </trkpt>
      <trkpt lat="44.54454" lon="6.17431">
        <ele>1020.096191</ele>
        <time>2011-03-01T11:16:56Z</time>
      </trkpt>
      <trkpt lat="44.54454" lon="6.17455">
        <ele>1017.212158</ele>
        <time>2011-03-01T11:16:58Z</time>
      </trkpt>
      <trkpt lat="44.54453" lon="6.17478">
        <ele>1014.808838</ele>
        <time>2011-03-01T11:17:00Z</time>
      </trkpt>
      <trkpt lat="44.54449" lon="6.17501">
        <ele>1013.847412</ele>
        <time>2011-03-01T11:17:02Z</time>
      </trkpt>
      <trkpt lat="44.5443" lon="6.17574">
        <ele>1009.041016</ele>
        <time>2011-03-01T11:17:10Z</time>
      </trkpt>
      <trkpt lat="44.54424" lon="6.17597">
        <ele>1008.079834</ele>
        <time>2011-03-01T11:17:12Z</time>
      </trkpt>
      <trkpt lat="44.5442" lon="6.17618">
        <ele>1006.156982</ele>
        <time>2011-03-01T11:17:14Z</time>
      </trkpt>
      <trkpt lat="44.54417" lon="6.17648">
        <ele>1005.195801</ele>
        <time>2011-03-01T11:17:17Z</time>
      </trkpt>
      <trkpt lat="44.54415" lon="6.1768">
        <ele>1004.715088</ele>
        <time>2011-03-01T11:17:21Z</time>
      </trkpt>
      <trkpt lat="44.54404" lon="6.17702">
        <ele>1002.792236</ele>
        <time>2011-03-01T11:17:26Z</time>
      </trkpt>
      <trkpt lat="44.54391" lon="6.17683">
        <ele>1000.869629</ele>
        <time>2011-03-01T11:17:30Z</time>
      </trkpt>
      <trkpt lat="44.5439" lon="6.17677">
        <ele>999.427734</ele>
        <time>2011-03-01T11:17:31Z</time>
      </trkpt>
      <trkpt lat="44.54389" lon="6.17662">
        <ele>998.947021</ele>
        <time>2011-03-01T11:17:33Z</time>
      </trkpt>
      <trkpt lat="44.54387" lon="6.17605">
        <ele>997.98584</ele>
        <time>2011-03-01T11:17:41Z</time>
      </trkpt>
      <trkpt lat="44.54377" lon="6.17566">
        <ele>997.024414</ele>
        <time>2011-03-01T11:17:46Z</time>
      </trkpt>
      <trkpt lat="44.54362" lon="6.17533">
        <ele>994.621094</ele>
        <time>2011-03-01T11:17:50Z</time>
      </trkpt>
      <trkpt lat="44.54329" lon="6.17504">
        <ele>990.29541</ele>
        <time>2011-03-01T11:17:55Z</time>
      </trkpt>
      <trkpt lat="44.54304" lon="6.17494">
        <ele>988.853516</ele>
        <time>2011-03-01T11:17:58Z</time>
      </trkpt>
      <trkpt lat="44.54265" lon="6.17492">
        <ele>985.969238</ele>
        <time>2011-03-01T11:18:03Z</time>
      </trkpt>
      <trkpt lat="44.54244" lon="6.17488">
        <ele>983.565918</ele>
        <time>2011-03-01T11:18:06Z</time>
      </trkpt>
      <trkpt lat="44.54219" lon="6.17479">
        <ele>983.085205</ele>
        <time>2011-03-01T11:18:10Z</time>
      </trkpt>
      <trkpt lat="44.54194" lon="6.17492">
        <ele>982.124023</ele>
        <time>2011-03-01T11:18:17Z</time>
      </trkpt>
      <trkpt lat="44.54205" lon="6.17511">
        <ele>979.720703</ele>
        <time>2011-03-01T11:18:22Z</time>
      </trkpt>
      <trkpt lat="44.54216" lon="6.17516">
        <ele>977.798096</ele>
        <time>2011-03-01T11:18:24Z</time>
      </trkpt>
      <trkpt lat="44.54232" lon="6.17546">
        <ele>976.836914</ele>
        <time>2011-03-01T11:18:28Z</time>
      </trkpt>
      <trkpt lat="44.54235" lon="6.17565">
        <ele>975.394775</ele>
        <time>2011-03-01T11:18:30Z</time>
      </trkpt>
      <trkpt lat="44.54231" lon="6.17586">
        <ele>973.472412</ele>
        <time>2011-03-01T11:18:32Z</time>
      </trkpt>
      <trkpt lat="44.54212" lon="6.17651">
        <ele>967.704102</ele>
        <time>2011-03-01T11:18:38Z</time>
      </trkpt>
      <trkpt lat="44.54208" lon="6.17662">
        <ele>967.704102</ele>
        <time>2011-03-01T11:18:39Z</time>
      </trkpt>
      <trkpt lat="44.54196" lon="6.17689">
        <ele>966.262207</ele>
        <time>2011-03-01T11:18:42Z</time>
      </trkpt>
      <trkpt lat="44.54181" lon="6.17725">
        <ele>964.820313</ele>
        <time>2011-03-01T11:18:46Z</time>
      </trkpt>
      <trkpt lat="44.54174" lon="6.17829">
        <ele>963.378418</ele>
        <time>2011-03-01T11:18:57Z</time>
      </trkpt>
      <trkpt lat="44.54186" lon="6.17861">
        <ele>961.455811</ele>
        <time>2011-03-01T11:19:01Z</time>
      </trkpt>
      <trkpt lat="44.54195" lon="6.17877">
        <ele>960.013672</ele>
        <time>2011-03-01T11:19:03Z</time>
      </trkpt>
      <trkpt lat="44.54223" lon="6.17899">
        <ele>958.571777</ele>
        <time>2011-03-01T11:19:08Z</time>
      </trkpt>
      <trkpt lat="44.54251" lon="6.17904">
        <ele>956.168457</ele>
        <time>2011-03-01T11:19:12Z</time>
      </trkpt>
      <trkpt lat="44.5431" lon="6.1794">
        <ele>955.687744</ele>
        <time>2011-03-01T11:19:21Z</time>
      </trkpt>
      <trkpt lat="44.5433" lon="6.17949">
        <ele>954.726318</ele>
        <time>2011-03-01T11:19:24Z</time>
      </trkpt>
      <trkpt lat="44.54345" lon="6.17955">
        <ele>952.803711</ele>
        <time>2011-03-01T11:19:26Z</time>
      </trkpt>
      <trkpt lat="44.54376" lon="6.17994">
        <ele>949.919922</ele>
        <time>2011-03-01T11:19:32Z</time>
      </trkpt>
      <trkpt lat="44.54386" lon="6.18016">
        <ele>948.477783</ele>
        <time>2011-03-01T11:19:34Z</time>
      </trkpt>
      <trkpt lat="44.54413" lon="6.18049">
        <ele>947.035889</ele>
        <time>2011-03-01T11:19:38Z</time>
      </trkpt>
      <trkpt lat="44.54423" lon="6.18068">
        <ele>945.113281</ele>
        <time>2011-03-01T11:19:40Z</time>
      </trkpt>
      <trkpt lat="44.54436" lon="6.18084">
        <ele>943.671387</ele>
        <time>2011-03-01T11:19:42Z</time>
      </trkpt>
      <trkpt lat="44.54449" lon="6.18098">
        <ele>941.268066</ele>
        <time>2011-03-01T11:19:44Z</time>
      </trkpt>
      <trkpt lat="44.54486" lon="6.18117">
        <ele>939.825928</ele>
        <time>2011-03-01T11:19:49Z</time>
      </trkpt>
      <trkpt lat="44.54501" lon="6.18118">
        <ele>940.787354</ele>
        <time>2011-03-01T11:19:51Z</time>
      </trkpt>
      <trkpt lat="44.54542" lon="6.18157">
        <ele>937.422607</ele>
        <time>2011-03-01T11:19:58Z</time>
      </trkpt>
      <trkpt lat="44.54555" lon="6.18183">
        <ele>935.980713</ele>
        <time>2011-03-01T11:20:01Z</time>
      </trkpt>
      <trkpt lat="44.54559" lon="6.18206">
        <ele>934.538818</ele>
        <time>2011-03-01T11:20:03Z</time>
      </trkpt>
      <trkpt lat="44.54571" lon="6.18223">
        <ele>933.09668</ele>
        <time>2011-03-01T11:20:05Z</time>
      </trkpt>
      <trkpt lat="44.5459" lon="6.18247">
        <ele>930.693604</ele>
        <time>2011-03-01T11:20:08Z</time>
      </trkpt>
      <trkpt lat="44.54596" lon="6.18254">
        <ele>929.732178</ele>
        <time>2011-03-01T11:20:09Z</time>
      </trkpt>
      <trkpt lat="44.54614" lon="6.18279">
        <ele>928.770996</ele>
        <time>2011-03-01T11:20:12Z</time>
      </trkpt>
      <trkpt lat="44.54627" lon="6.18309">
        <ele>925.886963</ele>
        <time>2011-03-01T11:20:15Z</time>
      </trkpt>
      <trkpt lat="44.54634" lon="6.1833">
        <ele>924.445068</ele>
        <time>2011-03-01T11:20:17Z</time>
      </trkpt>
      <trkpt lat="44.54642" lon="6.18358">
        <ele>924.445068</ele>
        <time>2011-03-01T11:20:20Z</time>
      </trkpt>
      <trkpt lat="44.54659" lon="6.18392">
        <ele>923.483643</ele>
        <time>2011-03-01T11:20:24Z</time>
      </trkpt>
      <trkpt lat="44.54667" lon="6.18411">
        <ele>922.522217</ele>
        <time>2011-03-01T11:20:26Z</time>
      </trkpt>
      <trkpt lat="44.5468" lon="6.18456">
        <ele>923.00293</ele>
        <time>2011-03-01T11:20:31Z</time>
      </trkpt>
      <trkpt lat="44.54708" lon="6.18474">
        <ele>921.080322</ele>
        <time>2011-03-01T11:20:36Z</time>
      </trkpt>
      <trkpt lat="44.5472" lon="6.18478">
        <ele>920.599609</ele>
        <time>2011-03-01T11:20:38Z</time>
      </trkpt>
      <trkpt lat="44.54733" lon="6.18527">
        <ele>918.196289</ele>
        <time>2011-03-01T11:20:45Z</time>
      </trkpt>
      <trkpt lat="44.54731" lon="6.1854">
        <ele>917.235107</ele>
        <time>2011-03-01T11:20:47Z</time>
      </trkpt>
      <trkpt lat="44.54742" lon="6.18567">
        <ele>913.870361</ele>
        <time>2011-03-01T11:20:52Z</time>
      </trkpt>
      <trkpt lat="44.54747" lon="6.18571">
        <ele>913.870361</ele>
        <time>2011-03-01T11:20:53Z</time>
      </trkpt>
      <trkpt lat="44.54763" lon="6.18586">
        <ele>913.389893</ele>
        <time>2011-03-01T11:20:56Z</time>
      </trkpt>
      <trkpt lat="44.54773" lon="6.18615">
        <ele>909.063965</ele>
        <time>2011-03-01T11:20:59Z</time>
      </trkpt>
      <trkpt lat="44.54777" lon="6.18625">
        <ele>907.621826</ele>
        <time>2011-03-01T11:21:00Z</time>
      </trkpt>
      <trkpt lat="44.54806" lon="6.18664">
        <ele>905.699219</ele>
        <time>2011-03-01T11:21:05Z</time>
      </trkpt>
      <trkpt lat="44.5482" lon="6.18674">
        <ele>906.6604</ele>
        <time>2011-03-01T11:21:07Z</time>
      </trkpt>
      <trkpt lat="44.54839" lon="6.18699">
        <ele>905.218506</ele>
        <time>2011-03-01T11:21:10Z</time>
      </trkpt>
      <trkpt lat="44.54849" lon="6.1872">
        <ele>901.373291</ele>
        <time>2011-03-01T11:21:12Z</time>
      </trkpt>
      <trkpt lat="44.54855" lon="6.18731">
        <ele>901.373291</ele>
        <time>2011-03-01T11:21:13Z</time>
      </trkpt>
      <trkpt lat="44.54866" lon="6.1875">
        <ele>899.931396</ele>
        <time>2011-03-01T11:21:15Z</time>
      </trkpt>
      <trkpt lat="44.54896" lon="6.18803">
        <ele>897.528076</ele>
        <time>2011-03-01T11:21:21Z</time>
      </trkpt>
      <trkpt lat="44.54917" lon="6.18822">
        <ele>896.086182</ele>
        <time>2011-03-01T11:21:24Z</time>
      </trkpt>
      <trkpt lat="44.54924" lon="6.18826">
        <ele>894.644043</ele>
        <time>2011-03-01T11:21:25Z</time>
      </trkpt>
      <trkpt lat="44.54952" lon="6.1884">
        <ele>894.163574</ele>
        <time>2011-03-01T11:21:29Z</time>
      </trkpt>
      <trkpt lat="44.54977" lon="6.18838">
        <ele>892.240967</ele>
        <time>2011-03-01T11:21:33Z</time>
      </trkpt>
      <trkpt lat="44.54988" lon="6.18832">
        <ele>891.76001</ele>
        <time>2011-03-01T11:21:35Z</time>
      </trkpt>
      <trkpt lat="44.55006" lon="6.18856">
        <ele>890.798584</ele>
        <time>2011-03-01T11:21:42Z</time>
      </trkpt>
      <trkpt lat="44.55004" lon="6.18865">
        <ele>890.798584</ele>
        <time>2011-03-01T11:21:43Z</time>
      </trkpt>
      <trkpt lat="44.55003" lon="6.18874">
        <ele>888.876221</ele>
        <time>2011-03-01T11:21:44Z</time>
      </trkpt>
      <trkpt lat="44.55001" lon="6.18904">
        <ele>887.434082</ele>
        <time>2011-03-01T11:21:47Z</time>
      </trkpt>
      <trkpt lat="44.55014" lon="6.18941">
        <ele>886.953369</ele>
        <time>2011-03-01T11:21:52Z</time>
      </trkpt>
      <trkpt lat="44.55037" lon="6.18972">
        <ele>884.550293</ele>
        <time>2011-03-01T11:21:57Z</time>
      </trkpt>
      <trkpt lat="44.55048" lon="6.18983">
        <ele>883.108154</ele>
        <time>2011-03-01T11:21:59Z</time>
      </trkpt>
      <trkpt lat="44.55084" lon="6.18985">
        <ele>885.031006</ele>
        <time>2011-03-01T11:22:05Z</time>
      </trkpt>
      <trkpt lat="44.55094" lon="6.1898">
        <ele>884.06958</ele>
        <time>2011-03-01T11:22:07Z</time>
      </trkpt>
      <trkpt lat="44.55111" lon="6.19009">
        <ele>882.627686</ele>
        <time>2011-03-01T11:22:13Z</time>
      </trkpt>
      <trkpt lat="44.5511" lon="6.19017">
        <ele>881.185791</ele>
        <time>2011-03-01T11:22:14Z</time>
      </trkpt>
      <trkpt lat="44.55108" lon="6.19037">
        <ele>879.262939</ele>
        <time>2011-03-01T11:22:16Z</time>
      </trkpt>
      <trkpt lat="44.55111" lon="6.19076">
        <ele>877.340576</ele>
        <time>2011-03-01T11:22:20Z</time>
      </trkpt>
      <trkpt lat="44.55132" lon="6.19112">
        <ele>875.898193</ele>
        <time>2011-03-01T11:22:24Z</time>
      </trkpt>
      <trkpt lat="44.5515" lon="6.1913">
        <ele>872.533691</ele>
        <time>2011-03-01T11:22:27Z</time>
      </trkpt>
      <trkpt lat="44.55162" lon="6.19145">
        <ele>869.649902</ele>
        <time>2011-03-01T11:22:29Z</time>
      </trkpt>
      <trkpt lat="44.55178" lon="6.19162">
        <ele>869.169189</ele>
        <time>2011-03-01T11:22:32Z</time>
      </trkpt>
      <trkpt lat="44.5519" lon="6.19167">
        <ele>870.130371</ele>
        <time>2011-03-01T11:22:34Z</time>
      </trkpt>
      <trkpt lat="44.55206" lon="6.19154">
        <ele>869.169189</ele>
        <time>2011-03-01T11:22:37Z</time>
      </trkpt>
      <trkpt lat="44.55214" lon="6.19141">
        <ele>870.130371</ele>
        <time>2011-03-01T11:22:39Z</time>
      </trkpt>
      <trkpt lat="44.55235" lon="6.19156">
        <ele>866.765869</ele>
        <time>2011-03-01T11:22:45Z</time>
      </trkpt>
      <trkpt lat="44.55231" lon="6.19168">
        <ele>865.804688</ele>
        <time>2011-03-01T11:22:47Z</time>
      </trkpt>
      <trkpt lat="44.55227" lon="6.19194">
        <ele>863.401367</ele>
        <time>2011-03-01T11:22:50Z</time>
      </trkpt>
      <trkpt lat="44.55248" lon="6.19232">
        <ele>861.959473</ele>
        <time>2011-03-01T11:22:55Z</time>
      </trkpt>
      <trkpt lat="44.55258" lon="6.19244">
        <ele>860.998047</ele>
        <time>2011-03-01T11:22:57Z</time>
      </trkpt>
      <trkpt lat="44.55267" lon="6.19258">
        <ele>860.036621</ele>
        <time>2011-03-01T11:22:59Z</time>
      </trkpt>
      <trkpt lat="44.55285" lon="6.193">
        <ele>857.152588</ele>
        <time>2011-03-01T11:23:04Z</time>
      </trkpt>
      <trkpt lat="44.55293" lon="6.19316">
        <ele>855.22998</ele>
        <time>2011-03-01T11:23:06Z</time>
      </trkpt>
      <trkpt lat="44.55318" lon="6.19349">
        <ele>852.345947</ele>
        <time>2011-03-01T11:23:11Z</time>
      </trkpt>
      <trkpt lat="44.55327" lon="6.19361">
        <ele>855.22998</ele>
        <time>2011-03-01T11:23:13Z</time>
      </trkpt>
      <trkpt lat="44.55348" lon="6.19382">
        <ele>853.788086</ele>
        <time>2011-03-01T11:23:17Z</time>
      </trkpt>
      <trkpt lat="44.55365" lon="6.19394">
        <ele>851.865479</ele>
        <time>2011-03-01T11:23:20Z</time>
      </trkpt>
      <trkpt lat="44.55377" lon="6.19402">
        <ele>849.942871</ele>
        <time>2011-03-01T11:23:22Z</time>
      </trkpt>
      <trkpt lat="44.55459" lon="6.19458">
        <ele>849.462158</ele>
        <time>2011-03-01T11:23:36Z</time>
      </trkpt>
      <trkpt lat="44.55495" lon="6.19453">
        <ele>849.942871</ele>
        <time>2011-03-01T11:23:43Z</time>
      </trkpt>
      <trkpt lat="44.55508" lon="6.19442">
        <ele>850.423584</ele>
        <time>2011-03-01T11:23:46Z</time>
      </trkpt>
      <trkpt lat="44.55529" lon="6.19445">
        <ele>850.423584</ele>
        <time>2011-03-01T11:23:51Z</time>
      </trkpt>
      <trkpt lat="44.55543" lon="6.19453">
        <ele>850.904053</ele>
        <time>2011-03-01T11:23:55Z</time>
      </trkpt>
      <trkpt lat="44.55565" lon="6.19449">
        <ele>851.865479</ele>
        <time>2011-03-01T11:24:01Z</time>
      </trkpt>
      <trkpt lat="44.55571" lon="6.19435">
        <ele>851.865479</ele>
        <time>2011-03-01T11:24:04Z</time>
      </trkpt>
      <trkpt lat="44.55597" lon="6.19435">
        <ele>851.865479</ele>
        <time>2011-03-01T11:24:12Z</time>
      </trkpt>
      <trkpt lat="44.55633" lon="6.19487">
        <ele>853.788086</ele>
        <time>2011-03-01T11:24:29Z</time>
      </trkpt>
      <trkpt lat="44.55676" lon="6.19509">
        <ele>856.671875</ele>
        <time>2011-03-01T11:24:45Z</time>
      </trkpt>
      <trkpt lat="44.55725" lon="6.19521">
        <ele>854.268799</ele>
        <time>2011-03-01T11:24:57Z</time>
      </trkpt>
      <trkpt lat="44.55771" lon="6.1952">
        <ele>852.82666</ele>
        <time>2011-03-01T11:25:06Z</time>
      </trkpt>
      <trkpt lat="44.55788" lon="6.19519">
        <ele>851.865479</ele>
        <time>2011-03-01T11:25:09Z</time>
      </trkpt>
      <trkpt lat="44.55827" lon="6.1951">
        <ele>846.578369</ele>
        <time>2011-03-01T11:25:15Z</time>
      </trkpt>
      <trkpt lat="44.55834" lon="6.19508">
        <ele>846.578369</ele>
        <time>2011-03-01T11:25:16Z</time>
      </trkpt>
      <trkpt lat="44.55857" lon="6.19518">
        <ele>847.058838</ele>
        <time>2011-03-01T11:25:20Z</time>
      </trkpt>
      <trkpt lat="44.55871" lon="6.19533">
        <ele>848.500732</ele>
        <time>2011-03-01T11:25:23Z</time>
      </trkpt>
      <trkpt lat="44.55897" lon="6.19553">
        <ele>850.423584</ele>
        <time>2011-03-01T11:25:30Z</time>
      </trkpt>
      <trkpt lat="44.55941" lon="6.19583">
        <ele>852.82666</ele>
        <time>2011-03-01T11:25:47Z</time>
      </trkpt>
      <trkpt lat="44.55955" lon="6.19593">
        <ele>854.268799</ele>
        <time>2011-03-01T11:25:53Z</time>
      </trkpt>
      <trkpt lat="44.5601" lon="6.19635">
        <ele>854.749268</ele>
        <time>2011-03-01T11:26:14Z</time>
      </trkpt>
      <trkpt lat="44.56062" lon="6.19671">
        <ele>856.191162</ele>
        <time>2011-03-01T11:26:34Z</time>
      </trkpt>
      <trkpt lat="44.5611" lon="6.19706">
        <ele>855.710693</ele>
        <time>2011-03-01T11:26:50Z</time>
      </trkpt>
      <trkpt lat="44.56154" lon="6.19744">
        <ele>854.268799</ele>
        <time>2011-03-01T11:27:04Z</time>
      </trkpt>
      <trkpt lat="44.5618" lon="6.19773">
        <ele>852.345947</ele>
        <time>2011-03-01T11:27:11Z</time>
      </trkpt>
      <trkpt lat="44.56189" lon="6.19781">
        <ele>851.384766</ele>
        <time>2011-03-01T11:27:13Z</time>
      </trkpt>
      <trkpt lat="44.56249" lon="6.19798">
        <ele>853.307373</ele>
        <time>2011-03-01T11:27:26Z</time>
      </trkpt>
      <trkpt lat="44.5626" lon="6.198">
        <ele>851.865479</ele>
        <time>2011-03-01T11:27:29Z</time>
      </trkpt>
      <trkpt lat="44.56274" lon="6.19812">
        <ele>855.22998</ele>
        <time>2011-03-01T11:27:35Z</time>
      </trkpt>
      <trkpt lat="44.56274" lon="6.19812">
        <ele>855.22998</ele>
        <time>2011-03-01T11:27:36Z</time>
      </trkpt>
      <trkpt lat="44.56276" lon="6.19806">
        <ele>855.710693</ele>
        <time>2011-03-01T11:27:45Z</time>
      </trkpt>
      <trkpt lat="44.56281" lon="6.19804">
        <ele>853.307373</ele>
        <time>2011-03-01T11:27:49Z</time>
      </trkpt>
      <trkpt lat="44.56284" lon="6.19796">
        <ele>854.749268</ele>
        <time>2011-03-01T11:27:52Z</time>
      </trkpt>
      <trkpt lat="44.56297" lon="6.19765">
        <ele>853.307373</ele>
        <time>2011-03-01T11:28:01Z</time>
      </trkpt>
      <trkpt lat="44.563" lon="6.19758">
        <ele>855.22998</ele>
        <time>2011-03-01T11:28:03Z</time>
      </trkpt>
      <trkpt lat="44.56304" lon="6.19739">
        <ele>856.671875</ele>
        <time>2011-03-01T11:28:08Z</time>
      </trkpt>
      <trkpt lat="44.56327" lon="6.19687">
        <ele>858.594482</ele>
        <time>2011-03-01T11:28:25Z</time>
      </trkpt>
      <trkpt lat="44.56334" lon="6.19691">
        <ele>858.114014</ele>
        <time>2011-03-01T11:28:37Z</time>
      </trkpt>
      <trkpt lat="44.56342" lon="6.19699">
        <ele>857.633301</ele>
        <time>2011-03-01T11:28:40Z</time>
      </trkpt>
      <trkpt lat="44.56347" lon="6.19717">
        <ele>858.114014</ele>
        <time>2011-03-01T11:28:44Z</time>
      </trkpt>
      <trkpt lat="44.56345" lon="6.19731">
        <ele>857.633301</ele>
        <time>2011-03-01T11:28:47Z</time>
      </trkpt>
      <trkpt lat="44.56327" lon="6.19794">
        <ele>858.114014</ele>
        <time>2011-03-01T11:29:01Z</time>
      </trkpt>
      <trkpt lat="44.56338" lon="6.19807">
        <ele>857.633301</ele>
        <time>2011-03-01T11:29:06Z</time>
      </trkpt>
      <trkpt lat="44.56354" lon="6.19808">
        <ele>858.114014</ele>
        <time>2011-03-01T11:29:12Z</time>
      </trkpt>
      <trkpt lat="44.56396" lon="6.19819">
        <ele>860.036621</ele>
        <time>2011-03-01T11:29:29Z</time>
      </trkpt>
      <trkpt lat="44.5645" lon="6.19838">
        <ele>858.114014</ele>
        <time>2011-03-01T11:29:48Z</time>
      </trkpt>
      <trkpt lat="44.56478" lon="6.19841">
        <ele>859.075195</ele>
        <time>2011-03-01T11:30:02Z</time>
      </trkpt>
      <trkpt lat="44.56479" lon="6.19835">
        <ele>860.036621</ele>
        <time>2011-03-01T11:30:15Z</time>
      </trkpt>
      <trkpt lat="44.56479" lon="6.19833">
        <ele>860.036621</ele>
        <time>2011-03-01T11:30:16Z</time>
      </trkpt>
      <trkpt lat="44.56488" lon="6.19782">
        <ele>858.594482</ele>
        <time>2011-03-01T11:30:30Z</time>
      </trkpt>
      <trkpt lat="44.56486" lon="6.19767">
        <ele>855.710693</ele>
        <time>2011-03-01T11:30:34Z</time>
      </trkpt>
      <trkpt lat="44.56488" lon="6.1974">
        <ele>858.114014</ele>
        <time>2011-03-01T11:30:42Z</time>
      </trkpt>
      <trkpt lat="44.56554" lon="6.19675">
        <ele>858.594482</ele>
        <time>2011-03-01T11:31:01Z</time>
      </trkpt>
      <trkpt lat="44.56593" lon="6.19612">
        <ele>858.114014</ele>
        <time>2011-03-01T11:31:20Z</time>
      </trkpt>
      <trkpt lat="44.56596" lon="6.19607">
        <ele>859.555908</ele>
        <time>2011-03-01T11:31:22Z</time>
      </trkpt>
      <trkpt lat="44.56617" lon="6.19573">
        <ele>857.152588</ele>
        <time>2011-03-01T11:31:33Z</time>
      </trkpt>
      <trkpt lat="44.56624" lon="6.19574">
        <ele>856.671875</ele>
        <time>2011-03-01T11:31:35Z</time>
      </trkpt>
      <trkpt lat="44.56692" lon="6.1959">
        <ele>857.152588</ele>
        <time>2011-03-01T11:31:54Z</time>
      </trkpt>
      <trkpt lat="44.56734" lon="6.1956">
        <ele>856.671875</ele>
        <time>2011-03-01T11:32:09Z</time>
      </trkpt>
      <trkpt lat="44.56752" lon="6.19522">
        <ele>857.633301</ele>
        <time>2011-03-01T11:32:18Z</time>
      </trkpt>
      <trkpt lat="44.56798" lon="6.19416">
        <ele>857.633301</ele>
        <time>2011-03-01T11:32:40Z</time>
      </trkpt>
      <trkpt lat="44.56845" lon="6.19299">
        <ele>854.749268</ele>
        <time>2011-03-01T11:33:02Z</time>
      </trkpt>
      <trkpt lat="44.56896" lon="6.19184">
        <ele>853.788086</ele>
        <time>2011-03-01T11:33:23Z</time>
      </trkpt>
      <trkpt lat="44.56961" lon="6.19071">
        <ele>853.788086</ele>
        <time>2011-03-01T11:33:47Z</time>
      </trkpt>
      <trkpt lat="44.57023" lon="6.19003">
        <ele>853.307373</ele>
        <time>2011-03-01T11:34:06Z</time>
      </trkpt>
      <trkpt lat="44.57082" lon="6.18913">
        <ele>854.268799</ele>
        <time>2011-03-01T11:34:28Z</time>
      </trkpt>
      <trkpt lat="44.57127" lon="6.18848">
        <ele>854.268799</ele>
        <time>2011-03-01T11:34:46Z</time>
      </trkpt>
      <trkpt lat="44.57191" lon="6.18811">
        <ele>855.710693</ele>
        <time>2011-03-01T11:35:05Z</time>
      </trkpt>
      <trkpt lat="44.57227" lon="6.18772">
        <ele>857.633301</ele>
        <time>2011-03-01T11:35:21Z</time>
      </trkpt>
      <trkpt lat="44.57235" lon="6.18702">
        <ele>859.075195</ele>
        <time>2011-03-01T11:35:38Z</time>
      </trkpt>
      <trkpt lat="44.57254" lon="6.1861">
        <ele>858.114014</ele>
        <time>2011-03-01T11:36:01Z</time>
      </trkpt>
      <trkpt lat="44.57267" lon="6.18576">
        <ele>859.075195</ele>
        <time>2011-03-01T11:36:10Z</time>
      </trkpt>
      <trkpt lat="44.57287" lon="6.18511">
        <ele>861.47876</ele>
        <time>2011-03-01T11:36:28Z</time>
      </trkpt>
      <trkpt lat="44.57301" lon="6.18455">
        <ele>864.362549</ele>
        <time>2011-03-01T11:36:46Z</time>
      </trkpt>
      <trkpt lat="44.57314" lon="6.18394">
        <ele>867.727051</ele>
        <time>2011-03-01T11:37:07Z</time>
      </trkpt>
      <trkpt lat="44.57333" lon="6.18335">
        <ele>870.611084</ele>
        <time>2011-03-01T11:37:28Z</time>
      </trkpt>
      <trkpt lat="44.57367" lon="6.1829">
        <ele>872.533691</ele>
        <time>2011-03-01T11:37:51Z</time>
      </trkpt>
      <trkpt lat="44.57394" lon="6.18262">
        <ele>875.41748</ele>
        <time>2011-03-01T11:38:06Z</time>
      </trkpt>
      <trkpt lat="44.5744" lon="6.1822">
        <ele>878.782471</ele>
        <time>2011-03-01T11:38:32Z</time>
      </trkpt>
      <trkpt lat="44.57442" lon="6.18218">
        <ele>878.782471</ele>
        <time>2011-03-01T11:38:33Z</time>
      </trkpt>
      <trkpt lat="44.57469" lon="6.18175">
        <ele>881.185791</ele>
        <time>2011-03-01T11:38:52Z</time>
      </trkpt>
      <trkpt lat="44.5749" lon="6.18135">
        <ele>884.06958</ele>
        <time>2011-03-01T11:39:09Z</time>
      </trkpt>
      <trkpt lat="44.57527" lon="6.18092">
        <ele>886.4729</ele>
        <time>2011-03-01T11:39:32Z</time>
      </trkpt>
      <trkpt lat="44.57559" lon="6.18064">
        <ele>889.356689</ele>
        <time>2011-03-01T11:39:49Z</time>
      </trkpt>
      <trkpt lat="44.57589" lon="6.18025">
        <ele>891.279297</ele>
        <time>2011-03-01T11:40:09Z</time>
      </trkpt>
      <trkpt lat="44.57629" lon="6.17987">
        <ele>893.202148</ele>
        <time>2011-03-01T11:40:31Z</time>
      </trkpt>
      <trkpt lat="44.57636" lon="6.17981">
        <ele>894.644043</ele>
        <time>2011-03-01T11:40:35Z</time>
      </trkpt>
      <trkpt lat="44.57676" lon="6.17956">
        <ele>896.566895</ele>
        <time>2011-03-01T11:40:56Z</time>
      </trkpt>
      <trkpt lat="44.57692" lon="6.17948">
        <ele>897.528076</ele>
        <time>2011-03-01T11:41:04Z</time>
      </trkpt>
      <trkpt lat="44.57748" lon="6.17937">
        <ele>900.892578</ele>
        <time>2011-03-01T11:41:30Z</time>
      </trkpt>
      <trkpt lat="44.57801" lon="6.1792">
        <ele>902.815186</ele>
        <time>2011-03-01T11:41:54Z</time>
      </trkpt>
      <trkpt lat="44.57827" lon="6.1788">
        <ele>902.815186</ele>
        <time>2011-03-01T11:42:11Z</time>
      </trkpt>
      <trkpt lat="44.5783" lon="6.17872">
        <ele>904.257324</ele>
        <time>2011-03-01T11:42:14Z</time>
      </trkpt>
      <trkpt lat="44.57835" lon="6.17856">
        <ele>907.141113</ele>
        <time>2011-03-01T11:42:20Z</time>
      </trkpt>
      <trkpt lat="44.57841" lon="6.178">
        <ele>909.544678</ele>
        <time>2011-03-01T11:42:40Z</time>
      </trkpt>
      <trkpt lat="44.57852" lon="6.17747">
        <ele>912.90918</ele>
        <time>2011-03-01T11:42:59Z</time>
      </trkpt>
      <trkpt lat="44.57873" lon="6.1769">
        <ele>915.3125</ele>
        <time>2011-03-01T11:43:21Z</time>
      </trkpt>
      <trkpt lat="44.57898" lon="6.17637">
        <ele>918.196289</ele>
        <time>2011-03-01T11:43:43Z</time>
      </trkpt>
      <trkpt lat="44.57911" lon="6.17621">
        <ele>917.235107</ele>
        <time>2011-03-01T11:43:51Z</time>
      </trkpt>
      <trkpt lat="44.57917" lon="6.17614">
        <ele>919.157715</ele>
        <time>2011-03-01T11:43:55Z</time>
      </trkpt>
      <trkpt lat="44.5792" lon="6.17611">
        <ele>920.599609</ele>
        <time>2011-03-01T11:43:57Z</time>
      </trkpt>
      <trkpt lat="44.57924" lon="6.17608">
        <ele>917.715576</ele>
        <time>2011-03-01T11:43:59Z</time>
      </trkpt>
      <trkpt lat="44.57928" lon="6.17605">
        <ele>920.599609</ele>
        <time>2011-03-01T11:44:01Z</time>
      </trkpt>
      <trkpt lat="44.57943" lon="6.17597">
        <ele>918.196289</ele>
        <time>2011-03-01T11:44:09Z</time>
      </trkpt>
      <trkpt lat="44.5795" lon="6.17595">
        <ele>920.118896</ele>
        <time>2011-03-01T11:44:12Z</time>
      </trkpt>
      <trkpt lat="44.57979" lon="6.17611">
        <ele>920.599609</ele>
        <time>2011-03-01T11:44:28Z</time>
      </trkpt>
      <trkpt lat="44.57982" lon="6.17615">
        <ele>922.522217</ele>
        <time>2011-03-01T11:44:30Z</time>
      </trkpt>
      <trkpt lat="44.57987" lon="6.17619">
        <ele>924.445068</ele>
        <time>2011-03-01T11:44:33Z</time>
      </trkpt>
      <trkpt lat="44.58" lon="6.17623">
        <ele>926.367676</ele>
        <time>2011-03-01T11:44:40Z</time>
      </trkpt>
      <trkpt lat="44.5801" lon="6.17595">
        <ele>928.290283</ele>
        <time>2011-03-01T11:44:51Z</time>
      </trkpt>
      <trkpt lat="44.58012" lon="6.17587">
        <ele>930.212891</ele>
        <time>2011-03-01T11:44:54Z</time>
      </trkpt>
      <trkpt lat="44.58015" lon="6.17546">
        <ele>930.693604</ele>
        <time>2011-03-01T11:45:10Z</time>
      </trkpt>
      <trkpt lat="44.58017" lon="6.17539">
        <ele>928.290283</ele>
        <time>2011-03-01T11:45:13Z</time>
      </trkpt>
      <trkpt lat="44.58032" lon="6.17517">
        <ele>930.212891</ele>
        <time>2011-03-01T11:45:25Z</time>
      </trkpt>
      <trkpt lat="44.5804" lon="6.17515">
        <ele>932.616211</ele>
        <time>2011-03-01T11:45:29Z</time>
      </trkpt>
      <trkpt lat="44.5805" lon="6.17513">
        <ele>934.058105</ele>
        <time>2011-03-01T11:45:34Z</time>
      </trkpt>
      <trkpt lat="44.58057" lon="6.17513">
        <ele>932.616211</ele>
        <time>2011-03-01T11:45:38Z</time>
      </trkpt>
      <trkpt lat="44.58061" lon="6.17513">
        <ele>933.577393</ele>
        <time>2011-03-01T11:45:40Z</time>
      </trkpt>
      <trkpt lat="44.58074" lon="6.17512">
        <ele>935.019531</ele>
        <time>2011-03-01T11:45:48Z</time>
      </trkpt>
      <trkpt lat="44.58088" lon="6.17511">
        <ele>938.864746</ele>
        <time>2011-03-01T11:45:56Z</time>
      </trkpt>
      <trkpt lat="44.58089" lon="6.1748">
        <ele>940.787354</ele>
        <time>2011-03-01T11:46:08Z</time>
      </trkpt>
      <trkpt lat="44.58071" lon="6.17455">
        <ele>941.748779</ele>
        <time>2011-03-01T11:46:21Z</time>
      </trkpt>
      <trkpt lat="44.58068" lon="6.1741">
        <ele>943.671387</ele>
        <time>2011-03-01T11:46:39Z</time>
      </trkpt>
      <trkpt lat="44.58069" lon="6.17406">
        <ele>942.229492</ele>
        <time>2011-03-01T11:46:41Z</time>
      </trkpt>
      <trkpt lat="44.58076" lon="6.17401">
        <ele>945.113281</ele>
        <time>2011-03-01T11:46:45Z</time>
      </trkpt>
      <trkpt lat="44.5808" lon="6.17398">
        <ele>946.55542</ele>
        <time>2011-03-01T11:46:47Z</time>
      </trkpt>
      <trkpt lat="44.58094" lon="6.17388">
        <ele>946.074707</ele>
        <time>2011-03-01T11:46:56Z</time>
      </trkpt>
      <trkpt lat="44.58104" lon="6.17382">
        <ele>946.074707</ele>
        <time>2011-03-01T11:47:02Z</time>
      </trkpt>
      <trkpt lat="44.58111" lon="6.17379">
        <ele>944.632568</ele>
        <time>2011-03-01T11:47:06Z</time>
      </trkpt>
      <trkpt lat="44.58122" lon="6.17376">
        <ele>947.997314</ele>
        <time>2011-03-01T11:47:12Z</time>
      </trkpt>
      <trkpt lat="44.58124" lon="6.17376">
        <ele>947.997314</ele>
        <time>2011-03-01T11:47:13Z</time>
      </trkpt>
      <trkpt lat="44.58128" lon="6.17376">
        <ele>945.593994</ele>
        <time>2011-03-01T11:47:15Z</time>
      </trkpt>
      <trkpt lat="44.58135" lon="6.17377">
        <ele>947.035889</ele>
        <time>2011-03-01T11:47:19Z</time>
      </trkpt>
      <trkpt lat="44.58164" lon="6.17382">
        <ele>950.400635</ele>
        <time>2011-03-01T11:47:35Z</time>
      </trkpt>
      <trkpt lat="44.5817" lon="6.17383">
        <ele>951.842529</ele>
        <time>2011-03-01T11:47:38Z</time>
      </trkpt>
      <trkpt lat="44.58189" lon="6.17387">
        <ele>952.803711</ele>
        <time>2011-03-01T11:47:48Z</time>
      </trkpt>
      <trkpt lat="44.58197" lon="6.17388">
        <ele>954.726318</ele>
        <time>2011-03-01T11:47:53Z</time>
      </trkpt>
      <trkpt lat="44.58212" lon="6.17389">
        <ele>955.207031</ele>
        <time>2011-03-01T11:48:01Z</time>
      </trkpt>
      <trkpt lat="44.58222" lon="6.17391">
        <ele>956.64917</ele>
        <time>2011-03-01T11:48:07Z</time>
      </trkpt>
      <trkpt lat="44.5824" lon="6.17385">
        <ele>959.05249</ele>
        <time>2011-03-01T11:48:16Z</time>
      </trkpt>
      <trkpt lat="44.58235" lon="6.17345">
        <ele>960.494385</ele>
        <time>2011-03-01T11:48:31Z</time>
      </trkpt>
      <trkpt lat="44.58216" lon="6.17311">
        <ele>963.858887</ele>
        <time>2011-03-01T11:48:46Z</time>
      </trkpt>
      <trkpt lat="44.582" lon="6.17281">
        <ele>966.262207</ele>
        <time>2011-03-01T11:49:01Z</time>
      </trkpt>
      <trkpt lat="44.58204" lon="6.17267">
        <ele>967.223633</ele>
        <time>2011-03-01T11:49:07Z</time>
      </trkpt>
      <trkpt lat="44.58207" lon="6.17265">
        <ele>965.781738</ele>
        <time>2011-03-01T11:49:09Z</time>
      </trkpt>
      <trkpt lat="44.58213" lon="6.1726">
        <ele>966.74292</ele>
        <time>2011-03-01T11:49:13Z</time>
      </trkpt>
      <trkpt lat="44.58236" lon="6.17254">
        <ele>969.14624</ele>
        <time>2011-03-01T11:49:26Z</time>
      </trkpt>
      <trkpt lat="44.5824" lon="6.17254">
        <ele>970.588135</ele>
        <time>2011-03-01T11:49:28Z</time>
      </trkpt>
      <trkpt lat="44.5827" lon="6.17246">
        <ele>973.472412</ele>
        <time>2011-03-01T11:49:45Z</time>
      </trkpt>
      <trkpt lat="44.58288" lon="6.17238">
        <ele>973.952881</ele>
        <time>2011-03-01T11:49:55Z</time>
      </trkpt>
      <trkpt lat="44.58306" lon="6.1723">
        <ele>977.317627</ele>
        <time>2011-03-01T11:50:07Z</time>
      </trkpt>
      <trkpt lat="44.58339" lon="6.17213">
        <ele>980.201416</ele>
        <time>2011-03-01T11:50:26Z</time>
      </trkpt>
      <trkpt lat="44.58349" lon="6.17199">
        <ele>980.201416</ele>
        <time>2011-03-01T11:50:32Z</time>
      </trkpt>
      <trkpt lat="44.58329" lon="6.17167">
        <ele>983.085205</ele>
        <time>2011-03-01T11:50:49Z</time>
      </trkpt>
      <trkpt lat="44.58294" lon="6.17159">
        <ele>985.488525</ele>
        <time>2011-03-01T11:51:06Z</time>
      </trkpt>
      <trkpt lat="44.58265" lon="6.1715">
        <ele>988.372803</ele>
        <time>2011-03-01T11:51:23Z</time>
      </trkpt>
      <trkpt lat="44.58243" lon="6.17131">
        <ele>991.737305</ele>
        <time>2011-03-01T11:51:37Z</time>
      </trkpt>
      <trkpt lat="44.58225" lon="6.17104">
        <ele>992.69873</ele>
        <time>2011-03-01T11:51:51Z</time>
      </trkpt>
      <trkpt lat="44.5823" lon="6.17056">
        <ele>995.101807</ele>
        <time>2011-03-01T11:52:08Z</time>
      </trkpt>
      <trkpt lat="44.58242" lon="6.17012">
        <ele>997.024414</ele>
        <time>2011-03-01T11:52:26Z</time>
      </trkpt>
      <trkpt lat="44.58257" lon="6.16953">
        <ele>1000.869629</ele>
        <time>2011-03-01T11:52:51Z</time>
      </trkpt>
      <trkpt lat="44.58262" lon="6.16932">
        <ele>1001.831055</ele>
        <time>2011-03-01T11:52:59Z</time>
      </trkpt>
      <trkpt lat="44.58273" lon="6.16895">
        <ele>1003.753662</ele>
        <time>2011-03-01T11:53:15Z</time>
      </trkpt>
      <trkpt lat="44.58289" lon="6.16861">
        <ele>1006.156982</ele>
        <time>2011-03-01T11:53:30Z</time>
      </trkpt>
      <trkpt lat="44.58319" lon="6.16845">
        <ele>1008.079834</ele>
        <time>2011-03-01T11:53:47Z</time>
      </trkpt>
      <trkpt lat="44.58337" lon="6.16827">
        <ele>1011.925049</ele>
        <time>2011-03-01T11:53:59Z</time>
      </trkpt>
      <trkpt lat="44.58355" lon="6.1679">
        <ele>1013.847412</ele>
        <time>2011-03-01T11:54:15Z</time>
      </trkpt>
      <trkpt lat="44.58354" lon="6.1675">
        <ele>1016.731445</ele>
        <time>2011-03-01T11:54:30Z</time>
      </trkpt>
      <trkpt lat="44.58366" lon="6.16716">
        <ele>1019.134766</ele>
        <time>2011-03-01T11:54:45Z</time>
      </trkpt>
      <trkpt lat="44.58384" lon="6.16673">
        <ele>1022.018799</ele>
        <time>2011-03-01T11:55:05Z</time>
      </trkpt>
      <trkpt lat="44.58395" lon="6.16632">
        <ele>1025.383301</ele>
        <time>2011-03-01T11:55:23Z</time>
      </trkpt>
      <trkpt lat="44.58417" lon="6.16577">
        <ele>1028.748047</ele>
        <time>2011-03-01T11:55:48Z</time>
      </trkpt>
      <trkpt lat="44.58427" lon="6.16567">
        <ele>1030.189941</ele>
        <time>2011-03-01T11:55:55Z</time>
      </trkpt>
      <trkpt lat="44.58453" lon="6.16547">
        <ele>1032.593262</ele>
        <time>2011-03-01T11:56:12Z</time>
      </trkpt>
      <trkpt lat="44.58443" lon="6.16518">
        <ele>1033.554443</ele>
        <time>2011-03-01T11:56:24Z</time>
      </trkpt>
      <trkpt lat="44.58454" lon="6.16468">
        <ele>1035.957764</ele>
        <time>2011-03-01T11:56:44Z</time>
      </trkpt>
      <trkpt lat="44.58464" lon="6.16434">
        <ele>1038.842041</ele>
        <time>2011-03-01T11:56:58Z</time>
      </trkpt>
      <trkpt lat="44.58466" lon="6.16427">
        <ele>1037.399902</ele>
        <time>2011-03-01T11:57:01Z</time>
      </trkpt>
      <trkpt lat="44.58478" lon="6.16398">
        <ele>1040.283936</ele>
        <time>2011-03-01T11:57:14Z</time>
      </trkpt>
      <trkpt lat="44.58509" lon="6.1638">
        <ele>1042.687256</ele>
        <time>2011-03-01T11:57:33Z</time>
      </trkpt>
      <trkpt lat="44.58531" lon="6.16374">
        <ele>1045.571045</ele>
        <time>2011-03-01T11:57:46Z</time>
      </trkpt>
      <trkpt lat="44.58561" lon="6.16353">
        <ele>1048.454834</ele>
        <time>2011-03-01T11:58:05Z</time>
      </trkpt>
      <trkpt lat="44.58556" lon="6.16328">
        <ele>1049.41626</ele>
        <time>2011-03-01T11:58:15Z</time>
      </trkpt>
      <trkpt lat="44.58531" lon="6.16297">
        <ele>1052.300293</ele>
        <time>2011-03-01T11:58:34Z</time>
      </trkpt>
      <trkpt lat="44.58548" lon="6.16267">
        <ele>1051.338867</ele>
        <time>2011-03-01T11:58:50Z</time>
      </trkpt>
      <trkpt lat="44.58553" lon="6.16263">
        <ele>1052.781006</ele>
        <time>2011-03-01T11:58:53Z</time>
      </trkpt>
      <trkpt lat="44.5857" lon="6.16255">
        <ele>1054.703613</ele>
        <time>2011-03-01T11:59:03Z</time>
      </trkpt>
      <trkpt lat="44.58574" lon="6.16255">
        <ele>1056.145508</ele>
        <time>2011-03-01T11:59:05Z</time>
      </trkpt>
      <trkpt lat="44.5859" lon="6.16255">
        <ele>1054.223145</ele>
        <time>2011-03-01T11:59:14Z</time>
      </trkpt>
      <trkpt lat="44.58592" lon="6.16255">
        <ele>1057.106934</ele>
        <time>2011-03-01T11:59:15Z</time>
      </trkpt>
      <trkpt lat="44.58594" lon="6.16255">
        <ele>1057.106934</ele>
        <time>2011-03-01T11:59:16Z</time>
      </trkpt>
      <trkpt lat="44.58598" lon="6.16256">
        <ele>1058.548828</ele>
        <time>2011-03-01T11:59:18Z</time>
      </trkpt>
      <trkpt lat="44.58611" lon="6.1626">
        <ele>1059.510254</ele>
        <time>2011-03-01T11:59:26Z</time>
      </trkpt>
      <trkpt lat="44.58636" lon="6.16248">
        <ele>1062.874756</ele>
        <time>2011-03-01T11:59:40Z</time>
      </trkpt>
      <trkpt lat="44.58674" lon="6.16235">
        <ele>1066.239258</ele>
        <time>2011-03-01T12:00:03Z</time>
      </trkpt>
      <trkpt lat="44.58681" lon="6.16215">
        <ele>1067.681152</ele>
        <time>2011-03-01T12:00:10Z</time>
      </trkpt>
      <trkpt lat="44.58658" lon="6.16184">
        <ele>1070.084717</ele>
        <time>2011-03-01T12:00:27Z</time>
      </trkpt>
      <trkpt lat="44.58641" lon="6.1617">
        <ele>1071.526611</ele>
        <time>2011-03-01T12:00:38Z</time>
      </trkpt>
      <trkpt lat="44.58633" lon="6.16119">
        <ele>1073.929932</ele>
        <time>2011-03-01T12:01:00Z</time>
      </trkpt>
      <trkpt lat="44.5865" lon="6.16091">
        <ele>1076.333252</ele>
        <time>2011-03-01T12:01:14Z</time>
      </trkpt>
      <trkpt lat="44.58651" lon="6.16089">
        <ele>1076.813965</ele>
        <time>2011-03-01T12:01:15Z</time>
      </trkpt>
      <trkpt lat="44.58672" lon="6.16055">
        <ele>1079.217041</ele>
        <time>2011-03-01T12:01:32Z</time>
      </trkpt>
      <trkpt lat="44.58678" lon="6.1604">
        <ele>1081.139893</ele>
        <time>2011-03-01T12:01:39Z</time>
      </trkpt>
      <trkpt lat="44.58689" lon="6.16012">
        <ele>1081.139893</ele>
        <time>2011-03-01T12:01:52Z</time>
      </trkpt>
      <trkpt lat="44.58696" lon="6.15994">
        <ele>1082.581787</ele>
        <time>2011-03-01T12:02:00Z</time>
      </trkpt>
      <trkpt lat="44.58698" lon="6.1599">
        <ele>1081.139893</ele>
        <time>2011-03-01T12:02:02Z</time>
      </trkpt>
      <trkpt lat="44.58701" lon="6.15983">
        <ele>1082.581787</ele>
        <time>2011-03-01T12:02:05Z</time>
      </trkpt>
      <trkpt lat="44.58704" lon="6.15977">
        <ele>1084.023926</ele>
        <time>2011-03-01T12:02:07Z</time>
      </trkpt>
      <trkpt lat="44.58719" lon="6.15969">
        <ele>1085.946533</ele>
        <time>2011-03-01T12:02:15Z</time>
      </trkpt>
      <trkpt lat="44.58736" lon="6.15973">
        <ele>1088.349854</ele>
        <time>2011-03-01T12:02:25Z</time>
      </trkpt>
      <trkpt lat="44.58735" lon="6.15923">
        <ele>1089.791748</ele>
        <time>2011-03-01T12:02:44Z</time>
      </trkpt>
      <trkpt lat="44.58749" lon="6.15888">
        <ele>1092.675781</ele>
        <time>2011-03-01T12:03:00Z</time>
      </trkpt>
      <trkpt lat="44.58754" lon="6.15882">
        <ele>1094.598145</ele>
        <time>2011-03-01T12:03:04Z</time>
      </trkpt>
      <trkpt lat="44.58761" lon="6.15871">
        <ele>1095.55957</ele>
        <time>2011-03-01T12:03:10Z</time>
      </trkpt>
      <trkpt lat="44.58775" lon="6.15831">
        <ele>1098.443359</ele>
        <time>2011-03-01T12:03:28Z</time>
      </trkpt>
      <trkpt lat="44.58779" lon="6.15821">
        <ele>1097.962891</ele>
        <time>2011-03-01T12:03:33Z</time>
      </trkpt>
      <trkpt lat="44.58796" lon="6.15797">
        <ele>1095.078857</ele>
        <time>2011-03-01T12:03:46Z</time>
      </trkpt>
      <trkpt lat="44.58797" lon="6.15796">
        <ele>1098.443359</ele>
        <time>2011-03-01T12:03:47Z</time>
      </trkpt>
      <trkpt lat="44.58799" lon="6.15795">
        <ele>1098.443359</ele>
        <time>2011-03-01T12:03:48Z</time>
      </trkpt>
      <trkpt lat="44.58819" lon="6.15794">
        <ele>1101.80835</ele>
        <time>2011-03-01T12:03:59Z</time>
      </trkpt>
      <trkpt lat="44.5882" lon="6.15795">
        <ele>1101.80835</ele>
        <time>2011-03-01T12:04:00Z</time>
      </trkpt>
      <trkpt lat="44.58843" lon="6.15794">
        <ele>1104.692139</ele>
        <time>2011-03-01T12:04:14Z</time>
      </trkpt>
      <trkpt lat="44.58854" lon="6.1576">
        <ele>1107.576172</ele>
        <time>2011-03-01T12:04:30Z</time>
      </trkpt>
      <trkpt lat="44.58858" lon="6.15727">
        <ele>1109.979248</ele>
        <time>2011-03-01T12:04:43Z</time>
      </trkpt>
      <trkpt lat="44.58883" lon="6.15706">
        <ele>1112.382568</ele>
        <time>2011-03-01T12:05:00Z</time>
      </trkpt>
      <trkpt lat="44.58916" lon="6.15685">
        <ele>1115.266602</ele>
        <time>2011-03-01T12:05:22Z</time>
      </trkpt>
      <trkpt lat="44.58931" lon="6.1564">
        <ele>1118.631348</ele>
        <time>2011-03-01T12:05:41Z</time>
      </trkpt>
      <trkpt lat="44.58958" lon="6.15589">
        <ele>1121.034668</ele>
        <time>2011-03-01T12:06:07Z</time>
      </trkpt>
      <trkpt lat="44.58983" lon="6.15577">
        <ele>1123.437988</ele>
        <time>2011-03-01T12:06:22Z</time>
      </trkpt>
      <trkpt lat="44.58986" lon="6.15576">
        <ele>1124.879883</ele>
        <time>2011-03-01T12:06:24Z</time>
      </trkpt>
      <trkpt lat="44.58991" lon="6.15575">
        <ele>1122.957275</ele>
        <time>2011-03-01T12:06:26Z</time>
      </trkpt>
      <trkpt lat="44.58995" lon="6.15568">
        <ele>1124.39917</ele>
        <time>2011-03-01T12:06:28Z</time>
      </trkpt>
      <trkpt lat="44.58995" lon="6.15564">
        <ele>1125.360352</ele>
        <time>2011-03-01T12:06:30Z</time>
      </trkpt>
      <trkpt lat="44.59004" lon="6.15516">
        <ele>1128.244385</ele>
        <time>2011-03-01T12:06:49Z</time>
      </trkpt>
      <trkpt lat="44.59009" lon="6.15506">
        <ele>1122.957275</ele>
        <time>2011-03-01T12:06:54Z</time>
      </trkpt>
      <trkpt lat="44.5901" lon="6.15504">
        <ele>1122.957275</ele>
        <time>2011-03-01T12:06:55Z</time>
      </trkpt>
      <trkpt lat="44.59011" lon="6.15502">
        <ele>1127.763672</ele>
        <time>2011-03-01T12:06:56Z</time>
      </trkpt>
      <trkpt lat="44.59013" lon="6.15495">
        <ele>1127.763672</ele>
        <time>2011-03-01T12:06:57Z</time>
      </trkpt>
      <trkpt lat="44.59012" lon="6.15491">
        <ele>1129.686279</ele>
        <time>2011-03-01T12:06:59Z</time>
      </trkpt>
      <trkpt lat="44.59009" lon="6.15472">
        <ele>1127.283203</ele>
        <time>2011-03-01T12:07:08Z</time>
      </trkpt>
      <trkpt lat="44.59009" lon="6.15472">
        <ele>1126.80249</ele>
        <time>2011-03-01T12:07:44Z</time>
      </trkpt>
      <trkpt lat="44.59009" lon="6.15472">
        <ele>1127.283203</ele>
        <time>2011-03-01T12:07:57Z</time>
      </trkpt>
      <trkpt lat="44.59009" lon="6.15472">
        <ele>1126.80249</ele>
        <time>2011-03-01T12:08:05Z</time>
      </trkpt>
      <trkpt lat="44.59009" lon="6.15472">
        <ele>1127.283203</ele>
        <time>2011-03-01T12:08:13Z</time>
      </trkpt>
      <trkpt lat="44.59009" lon="6.15472">
        <ele>1129.205566</ele>
        <time>2011-03-01T12:08:56Z</time>
      </trkpt>
      <trkpt lat="44.59009" lon="6.15472">
        <ele>1127.763672</ele>
        <time>2011-03-01T12:08:58Z</time>
      </trkpt>
      <trkpt lat="44.59011" lon="6.15449">
        <ele>1126.80249</ele>
        <time>2011-03-01T12:09:12Z</time>
      </trkpt>
      <trkpt lat="44.59014" lon="6.15431">
        <ele>1125.360352</ele>
        <time>2011-03-01T12:09:15Z</time>
      </trkpt>
      <trkpt lat="44.59015" lon="6.15416">
        <ele>1123.437988</ele>
        <time>2011-03-01T12:09:17Z</time>
      </trkpt>
      <trkpt lat="44.59016" lon="6.154">
        <ele>1121.99585</ele>
        <time>2011-03-01T12:09:19Z</time>
      </trkpt>
      <trkpt lat="44.59013" lon="6.15352">
        <ele>1119.112061</ele>
        <time>2011-03-01T12:09:24Z</time>
      </trkpt>
      <trkpt lat="44.59011" lon="6.15311">
        <ele>1118.631348</ele>
        <time>2011-03-01T12:09:31Z</time>
      </trkpt>
      <trkpt lat="44.59" lon="6.15309">
        <ele>1116.70874</ele>
        <time>2011-03-01T12:09:36Z</time>
      </trkpt>
      <trkpt lat="44.58992" lon="6.15307">
        <ele>1115.266602</ele>
        <time>2011-03-01T12:09:38Z</time>
      </trkpt>
      <trkpt lat="44.58983" lon="6.15307">
        <ele>1113.343994</ele>
        <time>2011-03-01T12:09:40Z</time>
      </trkpt>
      <trkpt lat="44.58953" lon="6.15346">
        <ele>1110.459961</ele>
        <time>2011-03-01T12:09:50Z</time>
      </trkpt>
      <trkpt lat="44.58951" lon="6.15352">
        <ele>1110.459961</ele>
        <time>2011-03-01T12:09:51Z</time>
      </trkpt>
      <trkpt lat="44.5894" lon="6.1537">
        <ele>1107.576172</ele>
        <time>2011-03-01T12:09:56Z</time>
      </trkpt>
      <trkpt lat="44.58935" lon="6.15372">
        <ele>1108.537354</ele>
        <time>2011-03-01T12:09:58Z</time>
      </trkpt>
      <trkpt lat="44.5893" lon="6.1535">
        <ele>1106.134033</ele>
        <time>2011-03-01T12:10:03Z</time>
      </trkpt>
      <trkpt lat="44.58931" lon="6.15334">
        <ele>1103.250244</ele>
        <time>2011-03-01T12:10:05Z</time>
      </trkpt>
      <trkpt lat="44.58932" lon="6.15312">
        <ele>1101.327637</ele>
        <time>2011-03-01T12:10:08Z</time>
      </trkpt>
      <trkpt lat="44.58934" lon="6.15289">
        <ele>1102.769531</ele>
        <time>2011-03-01T12:10:12Z</time>
      </trkpt>
      <trkpt lat="44.58938" lon="6.15271">
        <ele>1100.846924</ele>
        <time>2011-03-01T12:10:15Z</time>
      </trkpt>
      <trkpt lat="44.58939" lon="6.15266">
        <ele>1097.962891</ele>
        <time>2011-03-01T12:10:16Z</time>
      </trkpt>
      <trkpt lat="44.58939" lon="6.15243">
        <ele>1097.001465</ele>
        <time>2011-03-01T12:10:20Z</time>
      </trkpt>
      <trkpt lat="44.58922" lon="6.1519">
        <ele>1095.078857</ele>
        <time>2011-03-01T12:10:29Z</time>
      </trkpt>
      <trkpt lat="44.58913" lon="6.15151">
        <ele>1091.714355</ele>
        <time>2011-03-01T12:10:35Z</time>
      </trkpt>
      <trkpt lat="44.58911" lon="6.15144">
        <ele>1091.714355</ele>
        <time>2011-03-01T12:10:36Z</time>
      </trkpt>
      <trkpt lat="44.58909" lon="6.1513">
        <ele>1089.311035</ele>
        <time>2011-03-01T12:10:38Z</time>
      </trkpt>
      <trkpt lat="44.58907" lon="6.15117">
        <ele>1087.388428</ele>
        <time>2011-03-01T12:10:40Z</time>
      </trkpt>
      <trkpt lat="44.58903" lon="6.15096">
        <ele>1084.985352</ele>
        <time>2011-03-01T12:10:43Z</time>
      </trkpt>
      <trkpt lat="44.58902" lon="6.15088">
        <ele>1081.620361</ele>
        <time>2011-03-01T12:10:44Z</time>
      </trkpt>
      <trkpt lat="44.58901" lon="6.15081">
        <ele>1081.620361</ele>
        <time>2011-03-01T12:10:45Z</time>
      </trkpt>
      <trkpt lat="44.58896" lon="6.15051">
        <ele>1077.294678</ele>
        <time>2011-03-01T12:10:49Z</time>
      </trkpt>
      <trkpt lat="44.58895" lon="6.15044">
        <ele>1077.294678</ele>
        <time>2011-03-01T12:10:50Z</time>
      </trkpt>
      <trkpt lat="44.5889" lon="6.15023">
        <ele>1074.891357</ele>
        <time>2011-03-01T12:10:53Z</time>
      </trkpt>
      <trkpt lat="44.58889" lon="6.15003">
        <ele>1073.449463</ele>
        <time>2011-03-01T12:10:56Z</time>
      </trkpt>
      <trkpt lat="44.58895" lon="6.14946">
        <ele>1072.488037</ele>
        <time>2011-03-01T12:11:09Z</time>
      </trkpt>
      <trkpt lat="44.58895" lon="6.14946">
        <ele>1072.488037</ele>
        <time>2011-03-01T12:11:11Z</time>
      </trkpt>
      <trkpt lat="44.58892" lon="6.14941">
        <ele>1073.929932</ele>
        <time>2011-03-01T12:11:13Z</time>
      </trkpt>
      <trkpt lat="44.58896" lon="6.14953">
        <ele>1072.488037</ele>
        <time>2011-03-01T12:11:17Z</time>
      </trkpt>
      <trkpt lat="44.58895" lon="6.14967">
        <ele>1071.046143</ele>
        <time>2011-03-01T12:11:19Z</time>
      </trkpt>
      <trkpt lat="44.58892" lon="6.1498">
        <ele>1069.604248</ele>
        <time>2011-03-01T12:11:21Z</time>
      </trkpt>
      <trkpt lat="44.58889" lon="6.15003">
        <ele>1067.681152</ele>
        <time>2011-03-01T12:11:25Z</time>
      </trkpt>
      <trkpt lat="44.58889" lon="6.1501">
        <ele>1066.239258</ele>
        <time>2011-03-01T12:11:27Z</time>
      </trkpt>
      <trkpt lat="44.58889" lon="6.15022">
        <ele>1063.835938</ele>
        <time>2011-03-01T12:11:30Z</time>
      </trkpt>
      <trkpt lat="44.5883" lon="6.15077">
        <ele>1060.471436</ele>
        <time>2011-03-01T12:11:35Z</time>
      </trkpt>
      <trkpt lat="44.58827" lon="6.15085">
        <ele>1060.471436</ele>
        <time>2011-03-01T12:11:36Z</time>
      </trkpt>
      <trkpt lat="44.58823" lon="6.15101">
        <ele>1059.510254</ele>
        <time>2011-03-01T12:11:38Z</time>
      </trkpt>
      <trkpt lat="44.58821" lon="6.15108">
        <ele>1058.068359</ele>
        <time>2011-03-01T12:11:39Z</time>
      </trkpt>
      <trkpt lat="44.58801" lon="6.15122">
        <ele>1056.626221</ele>
        <time>2011-03-01T12:11:45Z</time>
      </trkpt>
      <trkpt lat="44.58798" lon="6.15103">
        <ele>1055.184326</ele>
        <time>2011-03-01T12:11:48Z</time>
      </trkpt>
      <trkpt lat="44.58797" lon="6.15087">
        <ele>1053.261719</ele>
        <time>2011-03-01T12:11:50Z</time>
      </trkpt>
      <trkpt lat="44.58795" lon="6.15049">
        <ele>1051.81958</ele>
        <time>2011-03-01T12:11:54Z</time>
      </trkpt>
      <trkpt lat="44.58794" lon="6.15027">
        <ele>1047.012939</ele>
        <time>2011-03-01T12:11:56Z</time>
      </trkpt>
      <trkpt lat="44.58793" lon="6.15015">
        <ele>1047.012939</ele>
        <time>2011-03-01T12:11:57Z</time>
      </trkpt>
      <trkpt lat="44.58792" lon="6.14991">
        <ele>1044.609619</ele>
        <time>2011-03-01T12:11:59Z</time>
      </trkpt>
      <trkpt lat="44.58784" lon="6.14935">
        <ele>1042.687256</ele>
        <time>2011-03-01T12:12:04Z</time>
      </trkpt>
      <trkpt lat="44.5878" lon="6.14914">
        <ele>1040.764404</ele>
        <time>2011-03-01T12:12:06Z</time>
      </trkpt>
      <trkpt lat="44.5877" lon="6.14861">
        <ele>1037.880615</ele>
        <time>2011-03-01T12:12:11Z</time>
      </trkpt>
      <trkpt lat="44.58763" lon="6.14819">
        <ele>1035.957764</ele>
        <time>2011-03-01T12:12:15Z</time>
      </trkpt>
      <trkpt lat="44.58758" lon="6.148">
        <ele>1034.515869</ele>
        <time>2011-03-01T12:12:17Z</time>
      </trkpt>
      <trkpt lat="44.58753" lon="6.14783">
        <ele>1035.957764</ele>
        <time>2011-03-01T12:12:19Z</time>
      </trkpt>
      <trkpt lat="44.58746" lon="6.14757">
        <ele>1033.07373</ele>
        <time>2011-03-01T12:12:22Z</time>
      </trkpt>
      <trkpt lat="44.58737" lon="6.14732">
        <ele>1033.554443</ele>
        <time>2011-03-01T12:12:25Z</time>
      </trkpt>
      <trkpt lat="44.58733" lon="6.14714">
        <ele>1031.631836</ele>
        <time>2011-03-01T12:12:27Z</time>
      </trkpt>
      <trkpt lat="44.58733" lon="6.14696">
        <ele>1028.267334</ele>
        <time>2011-03-01T12:12:29Z</time>
      </trkpt>
      <trkpt lat="44.58734" lon="6.14644">
        <ele>1022.499512</ele>
        <time>2011-03-01T12:12:35Z</time>
      </trkpt>
      <trkpt lat="44.58735" lon="6.14635">
        <ele>1022.499512</ele>
        <time>2011-03-01T12:12:36Z</time>
      </trkpt>
      <trkpt lat="44.58735" lon="6.1459">
        <ele>1021.538086</ele>
        <time>2011-03-01T12:12:41Z</time>
      </trkpt>
      <trkpt lat="44.58735" lon="6.14581">
        <ele>1016.731445</ele>
        <time>2011-03-01T12:12:42Z</time>
      </trkpt>
      <trkpt lat="44.58735" lon="6.14572">
        <ele>1016.731445</ele>
        <time>2011-03-01T12:12:43Z</time>
      </trkpt>
      <trkpt lat="44.5874" lon="6.14525">
        <ele>1013.847412</ele>
        <time>2011-03-01T12:12:48Z</time>
      </trkpt>
      <trkpt lat="44.58743" lon="6.14505">
        <ele>1013.366943</ele>
        <time>2011-03-01T12:12:50Z</time>
      </trkpt>
      <trkpt lat="44.58745" lon="6.14485">
        <ele>1010.48291</ele>
        <time>2011-03-01T12:12:52Z</time>
      </trkpt>
      <trkpt lat="44.58745" lon="6.14442">
        <ele>1007.118408</ele>
        <time>2011-03-01T12:12:56Z</time>
      </trkpt>
      <trkpt lat="44.58745" lon="6.14431">
        <ele>1007.118408</ele>
        <time>2011-03-01T12:12:57Z</time>
      </trkpt>
      <trkpt lat="44.58745" lon="6.14387">
        <ele>1005.676514</ele>
        <time>2011-03-01T12:13:01Z</time>
      </trkpt>
      <trkpt lat="44.58743" lon="6.1436">
        <ele>1006.637695</ele>
        <time>2011-03-01T12:13:04Z</time>
      </trkpt>
      <trkpt lat="44.58749" lon="6.14324">
        <ele>1003.753662</ele>
        <time>2011-03-01T12:13:08Z</time>
      </trkpt>
      <trkpt lat="44.58744" lon="6.14285">
        <ele>1002.792236</ele>
        <time>2011-03-01T12:13:14Z</time>
      </trkpt>
      <trkpt lat="44.58735" lon="6.14275">
        <ele>1002.311523</ele>
        <time>2011-03-01T12:13:16Z</time>
      </trkpt>
      <trkpt lat="44.58727" lon="6.14262">
        <ele>998.947021</ele>
        <time>2011-03-01T12:13:18Z</time>
      </trkpt>
      <trkpt lat="44.58719" lon="6.14236">
        <ele>995.101807</ele>
        <time>2011-03-01T12:13:21Z</time>
      </trkpt>
      <trkpt lat="44.58707" lon="6.1417">
        <ele>993.179199</ele>
        <time>2011-03-01T12:13:27Z</time>
      </trkpt>
      <trkpt lat="44.58705" lon="6.14159">
        <ele>989.333984</ele>
        <time>2011-03-01T12:13:28Z</time>
      </trkpt>
      <trkpt lat="44.58702" lon="6.14148">
        <ele>989.333984</ele>
        <time>2011-03-01T12:13:29Z</time>
      </trkpt>
      <trkpt lat="44.58695" lon="6.14117">
        <ele>987.891846</ele>
        <time>2011-03-01T12:13:32Z</time>
      </trkpt>
      <trkpt lat="44.5869" lon="6.14077">
        <ele>989.814697</ele>
        <time>2011-03-01T12:13:36Z</time>
      </trkpt>
      <trkpt lat="44.5869" lon="6.14056">
        <ele>986.93042</ele>
        <time>2011-03-01T12:13:38Z</time>
      </trkpt>
      <trkpt lat="44.5869" lon="6.14045">
        <ele>986.93042</ele>
        <time>2011-03-01T12:13:39Z</time>
      </trkpt>
      <trkpt lat="44.5869" lon="6.14005">
        <ele>984.527344</ele>
        <time>2011-03-01T12:13:43Z</time>
      </trkpt>
      <trkpt lat="44.5869" lon="6.13923">
        <ele>983.085205</ele>
        <time>2011-03-01T12:13:52Z</time>
      </trkpt>
      <trkpt lat="44.58684" lon="6.13893">
        <ele>980.201416</ele>
        <time>2011-03-01T12:13:55Z</time>
      </trkpt>
      <trkpt lat="44.58682" lon="6.13872">
        <ele>977.798096</ele>
        <time>2011-03-01T12:13:57Z</time>
      </trkpt>
      <trkpt lat="44.58677" lon="6.138">
        <ele>975.394775</ele>
        <time>2011-03-01T12:14:04Z</time>
      </trkpt>
      <trkpt lat="44.5868" lon="6.13764">
        <ele>970.107422</ele>
        <time>2011-03-01T12:14:08Z</time>
      </trkpt>
      <trkpt lat="44.58681" lon="6.13756">
        <ele>970.107422</ele>
        <time>2011-03-01T12:14:09Z</time>
      </trkpt>
      <trkpt lat="44.58677" lon="6.13728">
        <ele>972.030273</ele>
        <time>2011-03-01T12:14:13Z</time>
      </trkpt>
      <trkpt lat="44.58673" lon="6.13723">
        <ele>970.588135</ele>
        <time>2011-03-01T12:14:14Z</time>
      </trkpt>
      <trkpt lat="44.58665" lon="6.1371">
        <ele>969.626953</ele>
        <time>2011-03-01T12:14:16Z</time>
      </trkpt>
      <trkpt lat="44.58642" lon="6.13668">
        <ele>965.301025</ele>
        <time>2011-03-01T12:14:21Z</time>
      </trkpt>
      <trkpt lat="44.58638" lon="6.1366">
        <ele>965.301025</ele>
        <time>2011-03-01T12:14:22Z</time>
      </trkpt>
      <trkpt lat="44.58606" lon="6.13605">
        <ele>963.858887</ele>
        <time>2011-03-01T12:14:29Z</time>
      </trkpt>
      <trkpt lat="44.58591" lon="6.13588">
        <ele>960.975098</ele>
        <time>2011-03-01T12:14:32Z</time>
      </trkpt>
      <trkpt lat="44.58582" lon="6.13574">
        <ele>959.533203</ele>
        <time>2011-03-01T12:14:34Z</time>
      </trkpt>
      <trkpt lat="44.58578" lon="6.13549">
        <ele>956.64917</ele>
        <time>2011-03-01T12:14:37Z</time>
      </trkpt>
      <trkpt lat="44.58575" lon="6.13531">
        <ele>953.284424</ele>
        <time>2011-03-01T12:14:39Z</time>
      </trkpt>
      <trkpt lat="44.5857" lon="6.13495">
        <ele>950.400635</ele>
        <time>2011-03-01T12:14:43Z</time>
      </trkpt>
      <trkpt lat="44.58565" lon="6.13449">
        <ele>948.477783</ele>
        <time>2011-03-01T12:14:48Z</time>
      </trkpt>
      <trkpt lat="44.58562" lon="6.13429">
        <ele>946.074707</ele>
        <time>2011-03-01T12:14:50Z</time>
      </trkpt>
      <trkpt lat="44.5856" lon="6.13399">
        <ele>944.1521</ele>
        <time>2011-03-01T12:14:53Z</time>
      </trkpt>
      <trkpt lat="44.58558" lon="6.13379">
        <ele>942.710205</ele>
        <time>2011-03-01T12:14:55Z</time>
      </trkpt>
      <trkpt lat="44.58551" lon="6.13329">
        <ele>940.787354</ele>
        <time>2011-03-01T12:15:00Z</time>
      </trkpt>
      <trkpt lat="44.5855" lon="6.13319">
        <ele>936.461426</ele>
        <time>2011-03-01T12:15:01Z</time>
      </trkpt>
      <trkpt lat="44.58548" lon="6.13309">
        <ele>936.461426</ele>
        <time>2011-03-01T12:15:02Z</time>
      </trkpt>
      <trkpt lat="44.58539" lon="6.13249">
        <ele>932.616211</ele>
        <time>2011-03-01T12:15:08Z</time>
      </trkpt>
      <trkpt lat="44.58538" lon="6.13239">
        <ele>932.616211</ele>
        <time>2011-03-01T12:15:09Z</time>
      </trkpt>
      <trkpt lat="44.58533" lon="6.13209">
        <ele>930.693604</ele>
        <time>2011-03-01T12:15:12Z</time>
      </trkpt>
      <trkpt lat="44.5852" lon="6.13175">
        <ele>928.770996</ele>
        <time>2011-03-01T12:15:16Z</time>
      </trkpt>
      <trkpt lat="44.58515" lon="6.13167">
        <ele>929.732178</ele>
        <time>2011-03-01T12:15:17Z</time>
      </trkpt>
      <trkpt lat="44.58498" lon="6.13143">
        <ele>927.80957</ele>
        <time>2011-03-01T12:15:20Z</time>
      </trkpt>
      <trkpt lat="44.58484" lon="6.13118">
        <ele>925.40625</ele>
        <time>2011-03-01T12:15:23Z</time>
      </trkpt>
      <trkpt lat="44.58475" lon="6.13101">
        <ele>923.00293</ele>
        <time>2011-03-01T12:15:25Z</time>
      </trkpt>
      <trkpt lat="44.5845" lon="6.13036">
        <ele>917.715576</ele>
        <time>2011-03-01T12:15:33Z</time>
      </trkpt>
      <trkpt lat="44.58448" lon="6.13027">
        <ele>917.715576</ele>
        <time>2011-03-01T12:15:34Z</time>
      </trkpt>
      <trkpt lat="44.58435" lon="6.13006">
        <ele>915.793213</ele>
        <time>2011-03-01T12:15:37Z</time>
      </trkpt>
      <trkpt lat="44.58411" lon="6.12992">
        <ele>914.351074</ele>
        <time>2011-03-01T12:15:41Z</time>
      </trkpt>
      <trkpt lat="44.5839" lon="6.12986">
        <ele>910.986572</ele>
        <time>2011-03-01T12:15:44Z</time>
      </trkpt>
      <trkpt lat="44.58367" lon="6.12983">
        <ele>910.505859</ele>
        <time>2011-03-01T12:15:48Z</time>
      </trkpt>
      <trkpt lat="44.58347" lon="6.12984">
        <ele>908.583252</ele>
        <time>2011-03-01T12:15:51Z</time>
      </trkpt>
      <trkpt lat="44.58336" lon="6.12992">
        <ele>908.102783</ele>
        <time>2011-03-01T12:15:53Z</time>
      </trkpt>
      <trkpt lat="44.58326" lon="6.13004">
        <ele>906.6604</ele>
        <time>2011-03-01T12:15:55Z</time>
      </trkpt>
      <trkpt lat="44.58309" lon="6.13018">
        <ele>905.699219</ele>
        <time>2011-03-01T12:15:58Z</time>
      </trkpt>
      <trkpt lat="44.58295" lon="6.13026">
        <ele>903.776611</ele>
        <time>2011-03-01T12:16:00Z</time>
      </trkpt>
      <trkpt lat="44.58262" lon="6.13039">
        <ele>902.334473</ele>
        <time>2011-03-01T12:16:05Z</time>
      </trkpt>
      <trkpt lat="44.5822" lon="6.13018">
        <ele>898.489258</ele>
        <time>2011-03-01T12:16:13Z</time>
      </trkpt>
      <trkpt lat="44.58217" lon="6.13011">
        <ele>898.489258</ele>
        <time>2011-03-01T12:16:14Z</time>
      </trkpt>
      <trkpt lat="44.58198" lon="6.13008">
        <ele>894.163574</ele>
        <time>2011-03-01T12:16:22Z</time>
      </trkpt>
      <trkpt lat="44.58199" lon="6.13013">
        <ele>894.163574</ele>
        <time>2011-03-01T12:16:23Z</time>
      </trkpt>
      <trkpt lat="44.58203" lon="6.13024">
        <ele>893.202148</ele>
        <time>2011-03-01T12:16:25Z</time>
      </trkpt>
      <trkpt lat="44.58213" lon="6.13051">
        <ele>889.837402</ele>
        <time>2011-03-01T12:16:29Z</time>
      </trkpt>
      <trkpt lat="44.58216" lon="6.13058">
        <ele>889.837402</ele>
        <time>2011-03-01T12:16:30Z</time>
      </trkpt>
      <trkpt lat="44.58228" lon="6.13082">
        <ele>886.953369</ele>
        <time>2011-03-01T12:16:34Z</time>
      </trkpt>
      <trkpt lat="44.58241" lon="6.13098">
        <ele>885.511475</ele>
        <time>2011-03-01T12:16:37Z</time>
      </trkpt>
      <trkpt lat="44.58249" lon="6.1311">
        <ele>884.06958</ele>
        <time>2011-03-01T12:16:39Z</time>
      </trkpt>
      <trkpt lat="44.58254" lon="6.13154">
        <ele>884.550293</ele>
        <time>2011-03-01T12:16:47Z</time>
      </trkpt>
      <trkpt lat="44.58242" lon="6.13143">
        <ele>882.627686</ele>
        <time>2011-03-01T12:16:50Z</time>
      </trkpt>
      <trkpt lat="44.58231" lon="6.13122">
        <ele>882.627686</ele>
        <time>2011-03-01T12:16:53Z</time>
      </trkpt>
      <trkpt lat="44.58219" lon="6.13111">
        <ele>880.224365</ele>
        <time>2011-03-01T12:16:55Z</time>
      </trkpt>
      <trkpt lat="44.58199" lon="6.13099">
        <ele>878.782471</ele>
        <time>2011-03-01T12:16:58Z</time>
      </trkpt>
      <trkpt lat="44.58186" lon="6.13092">
        <ele>876.859863</ele>
        <time>2011-03-01T12:17:00Z</time>
      </trkpt>
      <trkpt lat="44.58174" lon="6.13085">
        <ele>875.41748</ele>
        <time>2011-03-01T12:17:02Z</time>
      </trkpt>
      <trkpt lat="44.58158" lon="6.1307">
        <ele>873.495117</ele>
        <time>2011-03-01T12:17:05Z</time>
      </trkpt>
      <trkpt lat="44.5815" lon="6.13056">
        <ele>872.052979</ele>
        <time>2011-03-01T12:17:07Z</time>
      </trkpt>
      <trkpt lat="44.58144" lon="6.1304">
        <ele>871.091797</ele>
        <time>2011-03-01T12:17:09Z</time>
      </trkpt>
      <trkpt lat="44.58134" lon="6.12997">
        <ele>868.207764</ele>
        <time>2011-03-01T12:17:14Z</time>
      </trkpt>
      <trkpt lat="44.58133" lon="6.12979">
        <ele>866.285156</ele>
        <time>2011-03-01T12:17:16Z</time>
      </trkpt>
      <trkpt lat="44.5813" lon="6.12961">
        <ele>864.362549</ele>
        <time>2011-03-01T12:17:18Z</time>
      </trkpt>
      <trkpt lat="44.58126" lon="6.12933">
        <ele>862.439941</ele>
        <time>2011-03-01T12:17:21Z</time>
      </trkpt>
      <trkpt lat="44.58125" lon="6.12913">
        <ele>861.47876</ele>
        <time>2011-03-01T12:17:23Z</time>
      </trkpt>
      <trkpt lat="44.58122" lon="6.12873">
        <ele>858.114014</ele>
        <time>2011-03-01T12:17:27Z</time>
      </trkpt>
      <trkpt lat="44.58121" lon="6.12864">
        <ele>858.114014</ele>
        <time>2011-03-01T12:17:28Z</time>
      </trkpt>
      <trkpt lat="44.58117" lon="6.12826">
        <ele>855.710693</ele>
        <time>2011-03-01T12:17:32Z</time>
      </trkpt>
      <trkpt lat="44.58117" lon="6.12775">
        <ele>853.788086</ele>
        <time>2011-03-01T12:17:37Z</time>
      </trkpt>
      <trkpt lat="44.5812" lon="6.12755">
        <ele>852.345947</ele>
        <time>2011-03-01T12:17:39Z</time>
      </trkpt>
      <trkpt lat="44.58122" lon="6.12735">
        <ele>849.942871</ele>
        <time>2011-03-01T12:17:41Z</time>
      </trkpt>
      <trkpt lat="44.5812" lon="6.12705">
        <ele>848.020264</ele>
        <time>2011-03-01T12:17:44Z</time>
      </trkpt>
      <trkpt lat="44.58117" lon="6.12686">
        <ele>846.578369</ele>
        <time>2011-03-01T12:17:46Z</time>
      </trkpt>
      <trkpt lat="44.58113" lon="6.12656">
        <ele>844.175049</ele>
        <time>2011-03-01T12:17:49Z</time>
      </trkpt>
      <trkpt lat="44.58112" lon="6.12609">
        <ele>841.290771</ele>
        <time>2011-03-01T12:17:55Z</time>
      </trkpt>
      <trkpt lat="44.58092" lon="6.12576">
        <ele>839.368164</ele>
        <time>2011-03-01T12:18:01Z</time>
      </trkpt>
      <trkpt lat="44.58076" lon="6.1257">
        <ele>838.406982</ele>
        <time>2011-03-01T12:18:04Z</time>
      </trkpt>
      <trkpt lat="44.58049" lon="6.12527">
        <ele>832.63916</ele>
        <time>2011-03-01T12:18:13Z</time>
      </trkpt>
      <trkpt lat="44.58051" lon="6.12523">
        <ele>832.63916</ele>
        <time>2011-03-01T12:18:14Z</time>
      </trkpt>
      <trkpt lat="44.58065" lon="6.12509">
        <ele>828.793945</ele>
        <time>2011-03-01T12:18:18Z</time>
      </trkpt>
      <trkpt lat="44.58075" lon="6.12505">
        <ele>827.832275</ele>
        <time>2011-03-01T12:18:20Z</time>
      </trkpt>
      <trkpt lat="44.58092" lon="6.12501">
        <ele>827.351807</ele>
        <time>2011-03-01T12:18:23Z</time>
      </trkpt>
      <trkpt lat="44.58097" lon="6.12469">
        <ele>827.832275</ele>
        <time>2011-03-01T12:18:30Z</time>
      </trkpt>
      <trkpt lat="44.58078" lon="6.12463">
        <ele>826.871094</ele>
        <time>2011-03-01T12:18:33Z</time>
      </trkpt>
      <trkpt lat="44.58046" lon="6.12456">
        <ele>824.948486</ele>
        <time>2011-03-01T12:18:37Z</time>
      </trkpt>
      <trkpt lat="44.5803" lon="6.12449">
        <ele>821.58374</ele>
        <time>2011-03-01T12:18:39Z</time>
      </trkpt>
      <trkpt lat="44.58022" lon="6.12445">
        <ele>821.58374</ele>
        <time>2011-03-01T12:18:40Z</time>
      </trkpt>
      <trkpt lat="44.57984" lon="6.12425">
        <ele>817.258057</ele>
        <time>2011-03-01T12:18:45Z</time>
      </trkpt>
      <trkpt lat="44.57977" lon="6.12421">
        <ele>817.258057</ele>
        <time>2011-03-01T12:18:46Z</time>
      </trkpt>
      <trkpt lat="44.57962" lon="6.12414">
        <ele>814.374023</ele>
        <time>2011-03-01T12:18:48Z</time>
      </trkpt>
      <trkpt lat="44.57954" lon="6.1241">
        <ele>814.374023</ele>
        <time>2011-03-01T12:18:49Z</time>
      </trkpt>
      <trkpt lat="44.57902" lon="6.12383">
        <ele>813.893311</ele>
        <time>2011-03-01T12:18:57Z</time>
      </trkpt>
      <trkpt lat="44.57882" lon="6.12374">
        <ele>811.48999</ele>
        <time>2011-03-01T12:19:00Z</time>
      </trkpt>
      <trkpt lat="44.57868" lon="6.12367">
        <ele>808.125488</ele>
        <time>2011-03-01T12:19:02Z</time>
      </trkpt>
      <trkpt lat="44.57862" lon="6.12364">
        <ele>808.125488</ele>
        <time>2011-03-01T12:19:03Z</time>
      </trkpt>
      <trkpt lat="44.57815" lon="6.12341">
        <ele>806.202637</ele>
        <time>2011-03-01T12:19:12Z</time>
      </trkpt>
      <trkpt lat="44.57788" lon="6.12327">
        <ele>805.722168</ele>
        <time>2011-03-01T12:19:23Z</time>
      </trkpt>
      <trkpt lat="44.57788" lon="6.12295">
        <ele>803.799561</ele>
        <time>2011-03-01T12:19:33Z</time>
      </trkpt>
      <trkpt lat="44.57786" lon="6.1225">
        <ele>801.876953</ele>
        <time>2011-03-01T12:19:40Z</time>
      </trkpt>
      <trkpt lat="44.57771" lon="6.1217">
        <ele>798.031738</ele>
        <time>2011-03-01T12:19:50Z</time>
      </trkpt>
      <trkpt lat="44.57769" lon="6.12161">
        <ele>798.031738</ele>
        <time>2011-03-01T12:19:51Z</time>
      </trkpt>
      <trkpt lat="44.5776" lon="6.12133">
        <ele>795.628174</ele>
        <time>2011-03-01T12:19:54Z</time>
      </trkpt>
      <trkpt lat="44.57734" lon="6.1203">
        <ele>793.224854</ele>
        <time>2011-03-01T12:20:06Z</time>
      </trkpt>
      <trkpt lat="44.57718" lon="6.11965">
        <ele>790.341064</ele>
        <time>2011-03-01T12:20:12Z</time>
      </trkpt>
      <trkpt lat="44.57709" lon="6.1193">
        <ele>789.379639</ele>
        <time>2011-03-01T12:20:15Z</time>
      </trkpt>
      <trkpt lat="44.57677" lon="6.11794">
        <ele>786.49585</ele>
        <time>2011-03-01T12:20:26Z</time>
      </trkpt>
      <trkpt lat="44.57671" lon="6.11769">
        <ele>784.573242</ele>
        <time>2011-03-01T12:20:28Z</time>
      </trkpt>
      <trkpt lat="44.57664" lon="6.11745">
        <ele>783.131104</ele>
        <time>2011-03-01T12:20:30Z</time>
      </trkpt>
      <trkpt lat="44.57637" lon="6.11633">
        <ele>782.650635</ele>
        <time>2011-03-01T12:20:40Z</time>
      </trkpt>
      <trkpt lat="44.57619" lon="6.11556">
        <ele>781.689209</ele>
        <time>2011-03-01T12:20:47Z</time>
      </trkpt>
      <trkpt lat="44.57614" lon="6.11534">
        <ele>783.131104</ele>
        <time>2011-03-01T12:20:49Z</time>
      </trkpt>
      <trkpt lat="44.57609" lon="6.11511">
        <ele>781.689209</ele>
        <time>2011-03-01T12:20:51Z</time>
      </trkpt>
      <trkpt lat="44.57603" lon="6.11489">
        <ele>780.247314</ele>
        <time>2011-03-01T12:20:53Z</time>
      </trkpt>
      <trkpt lat="44.57576" lon="6.11379">
        <ele>777.84375</ele>
        <time>2011-03-01T12:21:03Z</time>
      </trkpt>
      <trkpt lat="44.57536" lon="6.11219">
        <ele>775.44043</ele>
        <time>2011-03-01T12:21:17Z</time>
      </trkpt>
      <trkpt lat="44.575" lon="6.11127">
        <ele>772.075928</ele>
        <time>2011-03-01T12:21:25Z</time>
      </trkpt>
      <trkpt lat="44.57494" lon="6.11117">
        <ele>772.075928</ele>
        <time>2011-03-01T12:21:26Z</time>
      </trkpt>
      <trkpt lat="44.57424" lon="6.11016">
        <ele>770.15332</ele>
        <time>2011-03-01T12:21:37Z</time>
      </trkpt>
      <trkpt lat="44.57384" lon="6.10965">
        <ele>771.595215</ele>
        <time>2011-03-01T12:21:44Z</time>
      </trkpt>
      <trkpt lat="44.57281" lon="6.10847">
        <ele>772.075928</ele>
        <time>2011-03-01T12:22:03Z</time>
      </trkpt>
      <trkpt lat="44.57171" lon="6.10713">
        <ele>770.634033</ele>
        <time>2011-03-01T12:22:25Z</time>
      </trkpt>
      <trkpt lat="44.57094" lon="6.1059">
        <ele>766.788818</ele>
        <time>2011-03-01T12:22:41Z</time>
      </trkpt>
      <trkpt lat="44.57084" lon="6.10571">
        <ele>765.346924</ele>
        <time>2011-03-01T12:22:43Z</time>
      </trkpt>
      <trkpt lat="44.57072" lon="6.10551">
        <ele>764.385498</ele>
        <time>2011-03-01T12:22:45Z</time>
      </trkpt>
      <trkpt lat="44.5706" lon="6.1053">
        <ele>761.501465</ele>
        <time>2011-03-01T12:22:47Z</time>
      </trkpt>
      <trkpt lat="44.57039" lon="6.10503">
        <ele>759.578857</ele>
        <time>2011-03-01T12:22:50Z</time>
      </trkpt>
      <trkpt lat="44.57025" lon="6.10486">
        <ele>757.65625</ele>
        <time>2011-03-01T12:22:52Z</time>
      </trkpt>
      <trkpt lat="44.56996" lon="6.10459">
        <ele>759.578857</ele>
        <time>2011-03-01T12:22:56Z</time>
      </trkpt>
      <trkpt lat="44.56957" lon="6.10401">
        <ele>759.098145</ele>
        <time>2011-03-01T12:23:05Z</time>
      </trkpt>
      <trkpt lat="44.56938" lon="6.10362">
        <ele>758.136963</ele>
        <time>2011-03-01T12:23:12Z</time>
      </trkpt>
      <trkpt lat="44.56939" lon="6.10335">
        <ele>757.175537</ele>
        <time>2011-03-01T12:23:16Z</time>
      </trkpt>
      <trkpt lat="44.5694" lon="6.10312">
        <ele>758.617432</ele>
        <time>2011-03-01T12:23:21Z</time>
      </trkpt>
      <trkpt lat="44.56932" lon="6.10297">
        <ele>757.65625</ele>
        <time>2011-03-01T12:23:25Z</time>
      </trkpt>
      <trkpt lat="44.56924" lon="6.10276">
        <ele>758.617432</ele>
        <time>2011-03-01T12:23:28Z</time>
      </trkpt>
      <trkpt lat="44.56907" lon="6.1017">
        <ele>756.694824</ele>
        <time>2011-03-01T12:23:42Z</time>
      </trkpt>
      <trkpt lat="44.56904" lon="6.1015">
        <ele>757.175537</ele>
        <time>2011-03-01T12:23:45Z</time>
      </trkpt>
      <trkpt lat="44.569" lon="6.10127">
        <ele>758.136963</ele>
        <time>2011-03-01T12:23:50Z</time>
      </trkpt>
      <trkpt lat="44.56899" lon="6.10124">
        <ele>758.136963</ele>
        <time>2011-03-01T12:24:01Z</time>
      </trkpt>
      <trkpt lat="44.56899" lon="6.10124">
        <ele>757.175537</ele>
        <time>2011-03-01T12:24:14Z</time>
      </trkpt>
      <trkpt lat="44.56899" lon="6.10124">
        <ele>758.136963</ele>
        <time>2011-03-01T12:24:21Z</time>
      </trkpt>
      <trkpt lat="44.56898" lon="6.10122">
        <ele>756.694824</ele>
        <time>2011-03-01T12:24:25Z</time>
      </trkpt>
      <trkpt lat="44.5689" lon="6.10114">
        <ele>755.25293</ele>
        <time>2011-03-01T12:24:30Z</time>
      </trkpt>
      <trkpt lat="44.56871" lon="6.10032">
        <ele>755.733643</ele>
        <time>2011-03-01T12:24:47Z</time>
      </trkpt>
      <trkpt lat="44.56856" lon="6.10004">
        <ele>755.733643</ele>
        <time>2011-03-01T12:24:53Z</time>
      </trkpt>
      <trkpt lat="44.56847" lon="6.09983">
        <ele>755.25293</ele>
        <time>2011-03-01T12:24:57Z</time>
      </trkpt>
      <trkpt lat="44.56824" lon="6.09925">
        <ele>754.291748</ele>
        <time>2011-03-01T12:25:07Z</time>
      </trkpt>
      <trkpt lat="44.56817" lon="6.09907">
        <ele>754.291748</ele>
        <time>2011-03-01T12:25:10Z</time>
      </trkpt>
      <trkpt lat="44.56805" lon="6.09878">
        <ele>755.25293</ele>
        <time>2011-03-01T12:25:15Z</time>
      </trkpt>
      <trkpt lat="44.56794" lon="6.09852">
        <ele>754.291748</ele>
        <time>2011-03-01T12:25:20Z</time>
      </trkpt>
      <trkpt lat="44.56779" lon="6.09811">
        <ele>753.811035</ele>
        <time>2011-03-01T12:25:28Z</time>
      </trkpt>
      <trkpt lat="44.56768" lon="6.09785">
        <ele>753.811035</ele>
        <time>2011-03-01T12:25:33Z</time>
      </trkpt>
      <trkpt lat="44.56759" lon="6.09765">
        <ele>752.368896</ele>
        <time>2011-03-01T12:25:37Z</time>
      </trkpt>
      <trkpt lat="44.56738" lon="6.09729">
        <ele>753.330322</ele>
        <time>2011-03-01T12:25:46Z</time>
      </trkpt>
      <trkpt lat="44.56734" lon="6.09724">
        <ele>753.330322</ele>
        <time>2011-03-01T12:25:51Z</time>
      </trkpt>
      <trkpt lat="44.56726" lon="6.09709">
        <ele>751.407715</ele>
        <time>2011-03-01T12:25:57Z</time>
      </trkpt>
      <trkpt lat="44.56726" lon="6.09709">
        <ele>751.888428</ele>
        <time>2011-03-01T12:26:00Z</time>
      </trkpt>
      <trkpt lat="44.56709" lon="6.09669">
        <ele>751.888428</ele>
        <time>2011-03-01T12:26:11Z</time>
      </trkpt>
      <trkpt lat="44.56688" lon="6.09616">
        <ele>752.368896</ele>
        <time>2011-03-01T12:26:20Z</time>
      </trkpt>
      <trkpt lat="44.56681" lon="6.09598">
        <ele>751.888428</ele>
        <time>2011-03-01T12:26:23Z</time>
      </trkpt>
      <trkpt lat="44.56676" lon="6.09586">
        <ele>749.96582</ele>
        <time>2011-03-01T12:26:25Z</time>
      </trkpt>
      <trkpt lat="44.56672" lon="6.09573">
        <ele>749.96582</ele>
        <time>2011-03-01T12:26:27Z</time>
      </trkpt>
      <trkpt lat="44.56662" lon="6.09551">
        <ele>749.485107</ele>
        <time>2011-03-01T12:26:31Z</time>
      </trkpt>
      <trkpt lat="44.5664" lon="6.09494">
        <ele>749.004395</ele>
        <time>2011-03-01T12:26:41Z</time>
      </trkpt>
      <trkpt lat="44.56611" lon="6.09424">
        <ele>748.043213</ele>
        <time>2011-03-01T12:26:52Z</time>
      </trkpt>
      <trkpt lat="44.566" lon="6.09397">
        <ele>747.562256</ele>
        <time>2011-03-01T12:26:57Z</time>
      </trkpt>
      <trkpt lat="44.56596" lon="6.09385">
        <ele>746.120361</ele>
        <time>2011-03-01T12:26:59Z</time>
      </trkpt>
      <trkpt lat="44.56578" lon="6.09307">
        <ele>747.081543</ele>
        <time>2011-03-01T12:27:13Z</time>
      </trkpt>
      <trkpt lat="44.56559" lon="6.09265">
        <ele>747.081543</ele>
        <time>2011-03-01T12:27:26Z</time>
      </trkpt>
      <trkpt lat="44.56557" lon="6.0926">
        <ele>747.081543</ele>
        <time>2011-03-01T12:27:27Z</time>
      </trkpt>
      <trkpt lat="44.56551" lon="6.09248">
        <ele>747.081543</ele>
        <time>2011-03-01T12:27:35Z</time>
      </trkpt>
      <trkpt lat="44.56549" lon="6.09241">
        <ele>747.562256</ele>
        <time>2011-03-01T12:27:38Z</time>
      </trkpt>
      <trkpt lat="44.56531" lon="6.09195">
        <ele>746.601074</ele>
        <time>2011-03-01T12:27:50Z</time>
      </trkpt>
      <trkpt lat="44.56531" lon="6.09195">
        <ele>747.081543</ele>
        <time>2011-03-01T12:27:54Z</time>
      </trkpt>
      <trkpt lat="44.56527" lon="6.09187">
        <ele>746.601074</ele>
        <time>2011-03-01T12:27:57Z</time>
      </trkpt>
      <trkpt lat="44.56504" lon="6.0913">
        <ele>745.158936</ele>
        <time>2011-03-01T12:28:10Z</time>
      </trkpt>
      <trkpt lat="44.56489" lon="6.09096">
        <ele>746.601074</ele>
        <time>2011-03-01T12:28:23Z</time>
      </trkpt>
      <trkpt lat="44.56489" lon="6.09096">
        <ele>746.601074</ele>
        <time>2011-03-01T12:28:25Z</time>
      </trkpt>
      <trkpt lat="44.56485" lon="6.09085">
        <ele>745.639648</ele>
        <time>2011-03-01T12:28:29Z</time>
      </trkpt>
      <trkpt lat="44.56468" lon="6.09047">
        <ele>745.639648</ele>
        <time>2011-03-01T12:28:38Z</time>
      </trkpt>
      <trkpt lat="44.56455" lon="6.09014">
        <ele>745.158936</ele>
        <time>2011-03-01T12:28:49Z</time>
      </trkpt>
      <trkpt lat="44.56444" lon="6.08987">
        <ele>744.197754</ele>
        <time>2011-03-01T12:28:58Z</time>
      </trkpt>
      <trkpt lat="44.56441" lon="6.08979">
        <ele>747.081543</ele>
        <time>2011-03-01T12:29:00Z</time>
      </trkpt>
      <trkpt lat="44.56422" lon="6.08935">
        <ele>744.197754</ele>
        <time>2011-03-01T12:29:12Z</time>
      </trkpt>
      <trkpt lat="44.5641" lon="6.08906">
        <ele>745.639648</ele>
        <time>2011-03-01T12:29:26Z</time>
      </trkpt>
      <trkpt lat="44.56399" lon="6.08879">
        <ele>744.197754</ele>
        <time>2011-03-01T12:29:37Z</time>
      </trkpt>
      <trkpt lat="44.56391" lon="6.0886">
        <ele>744.678223</ele>
        <time>2011-03-01T12:29:41Z</time>
      </trkpt>
      <trkpt lat="44.56378" lon="6.08828">
        <ele>745.639648</ele>
        <time>2011-03-01T12:29:47Z</time>
      </trkpt>
      <trkpt lat="44.5635" lon="6.0876">
        <ele>743.236328</ele>
        <time>2011-03-01T12:30:00Z</time>
      </trkpt>
      <trkpt lat="44.56336" lon="6.08726">
        <ele>743.236328</ele>
        <time>2011-03-01T12:30:07Z</time>
      </trkpt>
      <trkpt lat="44.56333" lon="6.08717">
        <ele>744.678223</ele>
        <time>2011-03-01T12:30:09Z</time>
      </trkpt>
      <trkpt lat="44.56329" lon="6.08708">
        <ele>746.120361</ele>
        <time>2011-03-01T12:30:11Z</time>
      </trkpt>
      <trkpt lat="44.56319" lon="6.08686">
        <ele>747.081543</ele>
        <time>2011-03-01T12:30:16Z</time>
      </trkpt>
      <trkpt lat="44.5628" lon="6.08587">
        <ele>746.120361</ele>
        <time>2011-03-01T12:30:34Z</time>
      </trkpt>
      <trkpt lat="44.56272" lon="6.08567">
        <ele>744.678223</ele>
        <time>2011-03-01T12:30:37Z</time>
      </trkpt>
      <trkpt lat="44.5626" lon="6.08539">
        <ele>746.601074</ele>
        <time>2011-03-01T12:30:42Z</time>
      </trkpt>
      <trkpt lat="44.56228" lon="6.08467">
        <ele>746.120361</ele>
        <time>2011-03-01T12:30:55Z</time>
      </trkpt>
      <trkpt lat="44.56213" lon="6.08458">
        <ele>746.601074</ele>
        <time>2011-03-01T12:31:04Z</time>
      </trkpt>
      <trkpt lat="44.56213" lon="6.08458">
        <ele>747.562256</ele>
        <time>2011-03-01T12:31:08Z</time>
      </trkpt>
      <trkpt lat="44.56213" lon="6.08458">
        <ele>746.601074</ele>
        <time>2011-03-01T12:31:20Z</time>
      </trkpt>
      <trkpt lat="44.5622" lon="6.08401">
        <ele>746.601074</ele>
        <time>2011-03-01T12:31:39Z</time>
      </trkpt>
      <trkpt lat="44.56207" lon="6.084">
        <ele>747.562256</ele>
        <time>2011-03-01T12:31:53Z</time>
      </trkpt>
      <trkpt lat="44.56201" lon="6.08386">
        <ele>747.562256</ele>
        <time>2011-03-01T12:32:08Z</time>
      </trkpt>
      <trkpt lat="44.56201" lon="6.08386">
        <ele>747.562256</ele>
        <time>2011-03-01T12:32:19Z</time>
      </trkpt>
      <trkpt lat="44.56176" lon="6.08327">
        <ele>745.639648</ele>
        <time>2011-03-01T12:32:31Z</time>
      </trkpt>
      <trkpt lat="44.56172" lon="6.08315">
        <ele>746.120361</ele>
        <time>2011-03-01T12:32:33Z</time>
      </trkpt>
      <trkpt lat="44.56167" lon="6.08303">
        <ele>744.678223</ele>
        <time>2011-03-01T12:32:35Z</time>
      </trkpt>
      <trkpt lat="44.56148" lon="6.08259">
        <ele>746.120361</ele>
        <time>2011-03-01T12:32:42Z</time>
      </trkpt>
      <trkpt lat="44.5614" lon="6.08241">
        <ele>746.120361</ele>
        <time>2011-03-01T12:32:45Z</time>
      </trkpt>
      <trkpt lat="44.5614" lon="6.08201">
        <ele>745.158936</ele>
        <time>2011-03-01T12:32:50Z</time>
      </trkpt>
      <trkpt lat="44.56143" lon="6.08172">
        <ele>746.120361</ele>
        <time>2011-03-01T12:32:54Z</time>
      </trkpt>
      <trkpt lat="44.56141" lon="6.0815">
        <ele>746.120361</ele>
        <time>2011-03-01T12:32:57Z</time>
      </trkpt>
      <trkpt lat="44.56109" lon="6.08063">
        <ele>747.562256</ele>
        <time>2011-03-01T12:33:11Z</time>
      </trkpt>
      <trkpt lat="44.56108" lon="6.08034">
        <ele>748.043213</ele>
        <time>2011-03-01T12:33:15Z</time>
      </trkpt>
      <trkpt lat="44.5612" lon="6.07987">
        <ele>748.043213</ele>
        <time>2011-03-01T12:33:23Z</time>
      </trkpt>
      <trkpt lat="44.56119" lon="6.07958">
        <ele>749.004395</ele>
        <time>2011-03-01T12:33:28Z</time>
      </trkpt>
      <trkpt lat="44.56108" lon="6.07917">
        <ele>748.043213</ele>
        <time>2011-03-01T12:33:35Z</time>
      </trkpt>
      <trkpt lat="44.56068" lon="6.07797">
        <ele>749.004395</ele>
        <time>2011-03-01T12:33:56Z</time>
      </trkpt>
      <trkpt lat="44.56035" lon="6.07695">
        <ele>749.004395</ele>
        <time>2011-03-01T12:34:15Z</time>
      </trkpt>
      <trkpt lat="44.56031" lon="6.07682">
        <ele>749.485107</ele>
        <time>2011-03-01T12:34:29Z</time>
      </trkpt>
      <trkpt lat="44.56013" lon="6.07631">
        <ele>749.96582</ele>
        <time>2011-03-01T12:34:42Z</time>
      </trkpt>
      <trkpt lat="44.56007" lon="6.07616">
        <ele>751.888428</ele>
        <time>2011-03-01T12:34:45Z</time>
      </trkpt>
      <trkpt lat="44.55974" lon="6.07588">
        <ele>750.927002</ele>
        <time>2011-03-01T12:34:55Z</time>
      </trkpt>
      <trkpt lat="44.55892" lon="6.07508">
        <ele>749.004395</ele>
        <time>2011-03-01T12:35:15Z</time>
      </trkpt>
      <trkpt lat="44.55881" lon="6.07497">
        <ele>749.004395</ele>
        <time>2011-03-01T12:35:19Z</time>
      </trkpt>
      <trkpt lat="44.55876" lon="6.07492">
        <ele>748.523682</ele>
        <time>2011-03-01T12:35:23Z</time>
      </trkpt>
      <trkpt lat="44.55875" lon="6.07492">
        <ele>749.004395</ele>
        <time>2011-03-01T12:35:29Z</time>
      </trkpt>
      <trkpt lat="44.55873" lon="6.07489">
        <ele>749.004395</ele>
        <time>2011-03-01T12:35:40Z</time>
      </trkpt>
      <trkpt lat="44.55869" lon="6.07485">
        <ele>749.004395</ele>
        <time>2011-03-01T12:35:44Z</time>
      </trkpt>
      <trkpt lat="44.55857" lon="6.07474">
        <ele>749.004395</ele>
        <time>2011-03-01T12:35:49Z</time>
      </trkpt>
      <trkpt lat="44.55856" lon="6.07473">
        <ele>749.004395</ele>
        <time>2011-03-01T12:36:00Z</time>
      </trkpt>
      <trkpt lat="44.55856" lon="6.07473">
        <ele>748.523682</ele>
        <time>2011-03-01T12:36:04Z</time>
      </trkpt>
      <trkpt lat="44.55867" lon="6.07483">
        <ele>746.601074</ele>
        <time>2011-03-01T12:36:09Z</time>
      </trkpt>
      <trkpt lat="44.55902" lon="6.07518">
        <ele>749.485107</ele>
        <time>2011-03-01T12:36:26Z</time>
      </trkpt>
    </trkseg>
  </trk>
</gpx>